SIA298 NZCH-WSSS
Flight info
| Callsign | SIA298 |
|---|---|
| Flight time | N/A |
| Altitude | 36000 |
| Route | VANDA N750 PLUGA/N0482F380 M636 TESAT A576 TATUK/N0485F400 A576 ATMAP M635 SURGA |
| Aircraft | A359/H-SDE2E3GHIJ3J4J5LM1ORWXY/LB1D1 |
Departure
| Time | 2026-04-28 19:03 |
|---|---|
| Airport | Christchurch International Airport (NZCH) |
Arrival
| Time | N/A |
|---|---|
| Airport | Singapore Changi Airport (WSSS) |
| Time | Latitude | Longitude | Altitude | Speed | Heading |
|---|---|---|---|---|---|
| 2026-04-28 18:41 | -43.48620 | 172.54075 | 327 ft | 0 kts | 206° |
| 2026-04-28 18:51 | -43.48619 | 172.54076 | 326 ft | 1 kts | 206° |
| 2026-04-28 18:51 | -43.48610 | 172.54082 | 238 ft | 2 kts | 206° |
| 2026-04-28 18:51 | -43.48601 | 172.54088 | 110 ft | 1 kts | 206° |
| 2026-04-28 18:52 | -43.48600 | 172.54089 | 110 ft | 0 kts | 206° |
| 2026-04-28 18:52 | -43.48592 | 172.54094 | 110 ft | 3 kts | 206° |
| 2026-04-28 18:52 | -43.48576 | 172.54105 | 110 ft | 2 kts | 206° |
| 2026-04-28 18:53 | -43.48560 | 172.54116 | 110 ft | 3 kts | 213° |
| 2026-04-28 18:53 | -43.48546 | 172.54132 | 110 ft | 3 kts | 232° |
| 2026-04-28 18:53 | -43.48537 | 172.54154 | 110 ft | 0 kts | 251° |
| 2026-04-28 18:57 | -43.48537 | 172.54152 | 110 ft | 1 kts | 254° |
| 2026-04-28 18:58 | -43.48533 | 172.54137 | 110 ft | 2 kts | 294° |
| 2026-04-28 18:58 | -43.48516 | 172.54077 | 110 ft | 10 kts | 284° |
| 2026-04-28 18:58 | -43.48536 | 172.53972 | 111 ft | 14 kts | 234° |
| 2026-04-28 18:58 | -43.48620 | 172.53866 | 115 ft | 19 kts | 220° |
| 2026-04-28 18:59 | -43.48732 | 172.53736 | 111 ft | 23 kts | 220° |
| 2026-04-28 18:59 | -43.48861 | 172.53585 | 114 ft | 26 kts | 219° |
| 2026-04-28 18:59 | -43.49003 | 172.53435 | 114 ft | 26 kts | 217° |
| 2026-04-28 18:59 | -43.49157 | 172.53266 | 116 ft | 28 kts | 224° |
| 2026-04-28 19:00 | -43.49303 | 172.53087 | 123 ft | 28 kts | 219° |
| 2026-04-28 19:00 | -43.49447 | 172.52919 | 126 ft | 28 kts | 220° |
| 2026-04-28 19:00 | -43.49600 | 172.52746 | 132 ft | 29 kts | 220° |
| 2026-04-28 19:00 | -43.49758 | 172.52562 | 127 ft | 26 kts | 222° |
| 2026-04-28 19:01 | -43.49792 | 172.52369 | 130 ft | 22 kts | 276° |
| 2026-04-28 19:01 | -43.49763 | 172.52246 | 124 ft | 1 kts | 332° |
| 2026-04-28 19:01 | -43.49757 | 172.52247 | 129 ft | 1 kts | 357° |
| 2026-04-28 19:01 | -43.49740 | 172.52253 | 128 ft | 6 kts | 12° |
| 2026-04-28 19:02 | -43.49697 | 172.52288 | 126 ft | 0 kts | 40° |
| 2026-04-28 19:02 | -43.49657 | 172.52333 | 126 ft | 28 kts | 39° |
| 2026-04-28 19:03 | -43.49346 | 172.52690 | 126 ft | 87 kts | 40° |
| 2026-04-28 19:03 | -43.48742 | 172.53388 | 117 ft | 137 kts | 39° |
| 2026-04-28 19:03 | -43.47915 | 172.54345 | 306 ft | 162 kts | 39° |
| 2026-04-28 19:03 | -43.47083 | 172.55345 | 869 ft | 157 kts | 40° |
| 2026-04-28 19:04 | -43.46184 | 172.56222 | 1299 ft | 164 kts | 26° |
| 2026-04-28 19:04 | -43.45105 | 172.56821 | 1565 ft | 171 kts | 13° |
| 2026-04-28 19:04 | -43.43924 | 172.57192 | 1888 ft | 179 kts | 10° |
| 2026-04-28 19:04 | -43.42692 | 172.57710 | 2144 ft | 193 kts | 21° |
| 2026-04-28 19:05 | -43.41431 | 172.58566 | 2368 ft | 210 kts | 25° |
| 2026-04-28 19:05 | -43.40069 | 172.59416 | 2576 ft | 224 kts | 14° |
| 2026-04-28 19:05 | -43.38495 | 172.59572 | 2731 ft | 239 kts | 345° |
| 2026-04-28 19:05 | -43.37062 | 172.58424 | 3043 ft | 245 kts | 308° |
| 2026-04-28 19:06 | -43.36259 | 172.56379 | 3573 ft | 246 kts | 283° |
| 2026-04-28 19:06 | -43.36014 | 172.54854 | 3946 ft | 248 kts | 280° |
| 2026-04-28 19:06 | -43.35490 | 172.51712 | 4648 ft | 256 kts | 284° |
| 2026-04-28 19:06 | -43.34969 | 172.49348 | 5187 ft | 261 kts | 287° |
| 2026-04-28 19:07 | -43.34321 | 172.46998 | 5738 ft | 265 kts | 291° |
| 2026-04-28 19:07 | -43.33536 | 172.44693 | 6324 ft | 268 kts | 296° |
| 2026-04-28 19:07 | -43.32598 | 172.42465 | 6874 ft | 271 kts | 302° |
| 2026-04-28 19:07 | -43.31492 | 172.40358 | 7430 ft | 273 kts | 308° |
| 2026-04-28 19:08 | -43.30250 | 172.38377 | 8019 ft | 275 kts | 308° |
| 2026-04-28 19:08 | -43.29117 | 172.36255 | 8572 ft | 276 kts | 302° |
| 2026-04-28 19:08 | -43.27989 | 172.34110 | 9143 ft | 279 kts | 308° |
| 2026-04-28 19:08 | -43.26716 | 172.32135 | 9721 ft | 281 kts | 310° |
| 2026-04-28 19:09 | -43.25401 | 172.30083 | 10231 ft | 286 kts | 309° |
| 2026-04-28 19:09 | -43.24100 | 172.27944 | 10484 ft | 299 kts | 308° |
| 2026-04-28 19:09 | -43.22784 | 172.25703 | 10720 ft | 311 kts | 307° |
| 2026-04-28 19:09 | -43.21415 | 172.23328 | 10983 ft | 323 kts | 307° |
| 2026-04-28 19:10 | -43.20004 | 172.20860 | 11237 ft | 335 kts | 307° |
| 2026-04-28 19:10 | -43.18547 | 172.18303 | 11506 ft | 345 kts | 307° |
| 2026-04-28 19:10 | -43.17059 | 172.15685 | 11887 ft | 350 kts | 307° |
| 2026-04-28 19:10 | -43.15555 | 172.13044 | 12341 ft | 353 kts | 307° |
| 2026-04-28 19:11 | -43.14038 | 172.10379 | 12804 ft | 356 kts | 307° |
| 2026-04-28 19:11 | -43.12511 | 172.07695 | 13261 ft | 358 kts | 307° |
| 2026-04-28 19:11 | -43.10975 | 172.04999 | 13734 ft | 360 kts | 307° |
| 2026-04-28 19:11 | -43.09427 | 172.02285 | 14149 ft | 362 kts | 307° |
| 2026-04-28 19:12 | -43.07897 | 171.99600 | 14558 ft | 364 kts | 307° |
| 2026-04-28 19:12 | -43.06316 | 171.96830 | 14969 ft | 366 kts | 307° |
| 2026-04-28 19:12 | -43.04764 | 171.94113 | 15357 ft | 368 kts | 307° |
| 2026-04-28 19:12 | -43.03178 | 171.91340 | 15752 ft | 371 kts | 307° |
| 2026-04-28 19:13 | -43.01583 | 171.88554 | 16170 ft | 373 kts | 307° |
| 2026-04-28 19:13 | -42.99978 | 171.85753 | 16557 ft | 376 kts | 307° |
| 2026-04-28 19:13 | -42.98362 | 171.82936 | 16961 ft | 378 kts | 307° |
| 2026-04-28 19:13 | -42.96732 | 171.80096 | 17342 ft | 381 kts | 307° |
| 2026-04-28 19:14 | -42.95093 | 171.77245 | 17742 ft | 383 kts | 307° |
| 2026-04-28 19:14 | -42.93441 | 171.74376 | 18133 ft | 386 kts | 307° |
| 2026-04-28 19:14 | -42.91781 | 171.71490 | 18466 ft | 389 kts | 307° |
| 2026-04-28 19:14 | -42.90667 | 171.69552 | 18708 ft | 390 kts | 307° |
| 2026-04-28 19:15 | -42.88458 | 171.65601 | 19147 ft | 393 kts | 303° |
| 2026-04-28 19:15 | -42.87531 | 171.63484 | 19390 ft | 393 kts | 296° |
| 2026-04-28 19:15 | -42.86527 | 171.60024 | 19724 ft | 394 kts | 285° |
| 2026-04-28 19:15 | -42.86051 | 171.57630 | 19961 ft | 395 kts | 283° |
| 2026-04-28 19:16 | -42.85168 | 171.52771 | 20420 ft | 397 kts | 283° |
| 2026-04-28 19:16 | -42.84496 | 171.49100 | 20759 ft | 399 kts | 283° |
| 2026-04-28 19:16 | -42.83825 | 171.45466 | 21082 ft | 401 kts | 284° |
| 2026-04-28 19:16 | -42.83137 | 171.41770 | 21373 ft | 404 kts | 284° |
| 2026-04-28 19:17 | -42.82433 | 171.38003 | 21663 ft | 406 kts | 284° |
| 2026-04-28 19:17 | -42.81741 | 171.34310 | 21960 ft | 408 kts | 284° |
| 2026-04-28 19:17 | -42.81034 | 171.30554 | 22265 ft | 410 kts | 284° |
| 2026-04-28 19:17 | -42.80321 | 171.26776 | 22554 ft | 413 kts | 284° |
| 2026-04-28 19:18 | -42.79604 | 171.22982 | 22846 ft | 415 kts | 284° |
| 2026-04-28 19:18 | -42.78881 | 171.19162 | 23160 ft | 417 kts | 284° |
| 2026-04-28 19:18 | -42.78153 | 171.15324 | 23461 ft | 419 kts | 284° |
| 2026-04-28 19:18 | -42.77423 | 171.11484 | 23778 ft | 421 kts | 284° |
| 2026-04-28 19:19 | -42.76687 | 171.07622 | 24048 ft | 423 kts | 284° |
| 2026-04-28 19:19 | -42.75947 | 171.03739 | 24286 ft | 425 kts | 284° |
| 2026-04-28 19:19 | -42.75200 | 170.99835 | 24528 ft | 427 kts | 284° |
| 2026-04-28 19:19 | -42.74451 | 170.95928 | 24759 ft | 429 kts | 284° |
| 2026-04-28 19:20 | -42.73694 | 170.91982 | 24992 ft | 431 kts | 284° |
| 2026-04-28 19:20 | -42.72934 | 170.88033 | 25245 ft | 433 kts | 284° |
| 2026-04-28 19:20 | -42.72168 | 170.84062 | 25481 ft | 435 kts | 284° |
| 2026-04-28 19:20 | -42.71398 | 170.80075 | 25719 ft | 437 kts | 284° |
| 2026-04-28 19:21 | -42.70624 | 170.76079 | 25969 ft | 439 kts | 284° |
| 2026-04-28 19:21 | -42.69845 | 170.72061 | 26235 ft | 440 kts | 284° |
| 2026-04-28 19:21 | -42.69060 | 170.68026 | 26486 ft | 442 kts | 284° |
| 2026-04-28 19:21 | -42.68272 | 170.63978 | 26745 ft | 443 kts | 284° |
| 2026-04-28 19:22 | -42.67480 | 170.59918 | 27014 ft | 445 kts | 285° |
| 2026-04-28 19:22 | -42.66954 | 170.57227 | 27180 ft | 446 kts | 285° |
| 2026-04-28 19:22 | -42.65882 | 170.51758 | 27517 ft | 449 kts | 285° |
| 2026-04-28 19:22 | -42.65075 | 170.47649 | 27739 ft | 451 kts | 285° |
| 2026-04-28 19:23 | -42.64262 | 170.43518 | 27993 ft | 454 kts | 285° |
| 2026-04-28 19:23 | -42.63444 | 170.39371 | 28242 ft | 455 kts | 285° |
| 2026-04-28 19:23 | -42.62621 | 170.35208 | 28499 ft | 458 kts | 285° |
| 2026-04-28 19:23 | -42.61793 | 170.31028 | 28741 ft | 460 kts | 285° |
| 2026-04-28 19:24 | -42.60960 | 170.26829 | 28974 ft | 462 kts | 285° |
| 2026-04-28 19:24 | -42.60122 | 170.22615 | 29218 ft | 464 kts | 285° |
| 2026-04-28 19:24 | -42.59286 | 170.18424 | 29449 ft | 466 kts | 285° |
| 2026-04-28 19:24 | -42.58434 | 170.14157 | 29696 ft | 468 kts | 285° |
| 2026-04-28 19:25 | -42.57580 | 170.09888 | 29961 ft | 470 kts | 285° |
| 2026-04-28 19:25 | -42.56719 | 170.05597 | 30208 ft | 472 kts | 285° |
| 2026-04-28 19:25 | -42.55852 | 170.01284 | 30443 ft | 475 kts | 285° |
| 2026-04-28 19:25 | -42.54981 | 169.96959 | 30660 ft | 476 kts | 285° |
| 2026-04-28 19:26 | -42.54104 | 169.92619 | 30902 ft | 478 kts | 285° |
| 2026-04-28 19:26 | -42.53225 | 169.88272 | 31124 ft | 479 kts | 285° |
| 2026-04-28 19:26 | -42.52340 | 169.83906 | 31333 ft | 481 kts | 285° |
| 2026-04-28 19:26 | -42.51451 | 169.79533 | 31542 ft | 483 kts | 285° |
| 2026-04-28 19:27 | -42.50557 | 169.75141 | 31750 ft | 484 kts | 285° |
| 2026-04-28 19:27 | -42.49658 | 169.70736 | 31970 ft | 485 kts | 285° |
| 2026-04-28 19:27 | -42.48755 | 169.66321 | 32159 ft | 487 kts | 286° |
| 2026-04-28 19:27 | -42.47849 | 169.61899 | 32354 ft | 488 kts | 286° |
| 2026-04-28 19:28 | -42.46937 | 169.57463 | 32528 ft | 490 kts | 286° |
| 2026-04-28 19:28 | -42.46022 | 169.53016 | 32749 ft | 490 kts | 286° |
| 2026-04-28 19:28 | -42.45116 | 169.48622 | 33014 ft | 490 kts | 286° |
| 2026-04-28 19:28 | -42.44198 | 169.44183 | 33287 ft | 489 kts | 286° |
| 2026-04-28 19:29 | -42.43281 | 169.39753 | 33554 ft | 488 kts | 286° |
| 2026-04-28 19:29 | -42.42649 | 169.36769 | 33743 ft | 488 kts | 287° |
| 2026-04-28 19:29 | -42.41015 | 169.31114 | 34095 ft | 486 kts | 295° |
| 2026-04-28 19:29 | -42.39578 | 169.26978 | 34359 ft | 485 kts | 296° |
| 2026-04-28 19:30 | -42.38090 | 169.22893 | 34603 ft | 485 kts | 297° |
| 2026-04-28 19:30 | -42.36582 | 169.18822 | 34839 ft | 484 kts | 297° |
| 2026-04-28 19:30 | -42.35073 | 169.14761 | 35069 ft | 483 kts | 297° |
| 2026-04-28 19:30 | -42.33570 | 169.10697 | 35308 ft | 482 kts | 297° |
| 2026-04-28 19:31 | -42.32081 | 169.06652 | 35552 ft | 481 kts | 296° |
| 2026-04-28 19:31 | -42.30596 | 169.02603 | 35774 ft | 481 kts | 296° |
| 2026-04-28 19:31 | -42.29115 | 168.98560 | 35999 ft | 480 kts | 296° |
| 2026-04-28 19:31 | -42.27637 | 168.94525 | 36233 ft | 479 kts | 296° |
| 2026-04-28 19:32 | -42.26156 | 168.90487 | 36340 ft | 481 kts | 296° |
| 2026-04-28 19:32 | -42.24664 | 168.86424 | 36349 ft | 485 kts | 296° |
| 2026-04-28 19:32 | -42.21658 | 168.78259 | 36356 ft | 485 kts | 296° |
| 2026-04-28 19:33 | -42.18651 | 168.70118 | 36354 ft | 485 kts | 296° |
| 2026-04-28 19:33 | -42.15660 | 168.62043 | 36357 ft | 485 kts | 296° |
| 2026-04-28 19:34 | -42.12638 | 168.53908 | 36356 ft | 485 kts | 296° |
| 2026-04-28 19:34 | -42.09612 | 168.45787 | 36357 ft | 485 kts | 296° |
| 2026-04-28 19:35 | -42.06583 | 168.37677 | 36355 ft | 484 kts | 296° |
| 2026-04-28 19:35 | -42.03551 | 168.29586 | 36360 ft | 485 kts | 296° |
| 2026-04-28 19:36 | -42.00511 | 168.21494 | 36368 ft | 485 kts | 296° |
| 2026-04-28 19:36 | -41.97464 | 168.13407 | 36367 ft | 485 kts | 296° |
| 2026-04-28 19:37 | -41.94924 | 168.06683 | 36360 ft | 485 kts | 297° |
| 2026-04-28 19:37 | -41.91348 | 167.97242 | 36363 ft | 485 kts | 297° |
| 2026-04-28 19:38 | -41.88304 | 167.89234 | 36364 ft | 485 kts | 297° |
| 2026-04-28 19:38 | -41.85229 | 167.81165 | 36365 ft | 485 kts | 297° |
| 2026-04-28 19:39 | -41.82153 | 167.73112 | 36365 ft | 485 kts | 297° |
| 2026-04-28 19:39 | -41.79071 | 167.65069 | 36367 ft | 485 kts | 297° |
| 2026-04-28 19:40 | -41.75983 | 167.57031 | 36372 ft | 485 kts | 297° |
| 2026-04-28 19:40 | -41.72889 | 167.49002 | 36371 ft | 485 kts | 297° |
| 2026-04-28 19:41 | -41.69788 | 167.40978 | 36380 ft | 485 kts | 297° |
| 2026-04-28 19:41 | -41.66681 | 167.32958 | 36368 ft | 485 kts | 297° |
| 2026-04-28 19:42 | -41.63587 | 167.24995 | 36375 ft | 485 kts | 297° |
| 2026-04-28 19:42 | -41.60975 | 167.18286 | 36367 ft | 485 kts | 297° |
| 2026-04-28 19:43 | -41.57347 | 167.08996 | 36377 ft | 485 kts | 297° |
| 2026-04-28 19:43 | -41.54219 | 167.01012 | 36381 ft | 485 kts | 297° |
| 2026-04-28 19:44 | -41.51085 | 166.93036 | 36367 ft | 485 kts | 297° |
| 2026-04-28 19:44 | -41.47947 | 166.85069 | 36367 ft | 485 kts | 297° |
| 2026-04-28 19:45 | -41.44801 | 166.77102 | 36384 ft | 485 kts | 297° |
| 2026-04-28 19:45 | -41.41654 | 166.69153 | 36382 ft | 485 kts | 297° |
| 2026-04-28 19:46 | -41.38496 | 166.61198 | 36380 ft | 485 kts | 297° |
| 2026-04-28 19:46 | -41.35335 | 166.53257 | 36382 ft | 485 kts | 297° |
| 2026-04-28 19:47 | -41.32187 | 166.45373 | 36383 ft | 486 kts | 297° |
| 2026-04-28 19:47 | -41.29010 | 166.37443 | 36383 ft | 486 kts | 297° |
| 2026-04-28 19:48 | -41.25829 | 166.29514 | 36384 ft | 485 kts | 297° |
| 2026-04-28 19:48 | -41.22648 | 166.21606 | 36385 ft | 485 kts | 297° |
| 2026-04-28 19:49 | -41.19459 | 166.13702 | 36386 ft | 485 kts | 297° |
| 2026-04-28 19:49 | -41.16259 | 166.05796 | 36384 ft | 486 kts | 297° |
| 2026-04-28 19:50 | -41.11449 | 165.93947 | 36386 ft | 486 kts | 297° |
| 2026-04-28 19:51 | -41.08239 | 165.86066 | 36387 ft | 486 kts | 297° |
| 2026-04-28 19:51 | -41.05033 | 165.78216 | 36388 ft | 486 kts | 297° |
| 2026-04-28 19:52 | -41.01807 | 165.70337 | 36392 ft | 487 kts | 297° |
| 2026-04-28 19:52 | -40.98573 | 165.62459 | 36387 ft | 487 kts | 297° |
| 2026-04-28 19:53 | -40.95330 | 165.54582 | 36388 ft | 487 kts | 297° |
| 2026-04-28 19:53 | -40.92084 | 165.46711 | 36388 ft | 487 kts | 297° |
| 2026-04-28 19:54 | -40.88855 | 165.38913 | 36387 ft | 487 kts | 297° |
| 2026-04-28 19:54 | -40.85599 | 165.31068 | 36389 ft | 487 kts | 297° |
| 2026-04-28 19:55 | -40.82336 | 165.23224 | 36388 ft | 487 kts | 297° |
| 2026-04-28 19:55 | -40.79064 | 165.15379 | 36391 ft | 487 kts | 298° |
| 2026-04-28 19:56 | -40.75787 | 165.07544 | 36393 ft | 488 kts | 298° |
| 2026-04-28 19:56 | -40.72501 | 164.99704 | 36397 ft | 488 kts | 298° |
| 2026-04-28 19:57 | -40.69232 | 164.91924 | 36394 ft | 488 kts | 298° |
| 2026-04-28 19:57 | -40.65931 | 164.84096 | 36391 ft | 488 kts | 298° |
| 2026-04-28 19:58 | -40.62628 | 164.76281 | 36390 ft | 488 kts | 298° |
| 2026-04-28 19:58 | -40.59319 | 164.68474 | 36398 ft | 489 kts | 298° |
| 2026-04-28 19:59 | -40.56007 | 164.60666 | 36397 ft | 489 kts | 298° |
| 2026-04-28 19:59 | -40.52688 | 164.52871 | 36397 ft | 489 kts | 298° |
| 2026-04-28 20:00 | -40.49363 | 164.45079 | 36394 ft | 489 kts | 298° |
| 2026-04-28 20:00 | -40.46027 | 164.37283 | 36399 ft | 489 kts | 298° |
| 2026-04-28 20:01 | -40.42686 | 164.29500 | 36394 ft | 489 kts | 298° |
| 2026-04-28 20:01 | -40.39338 | 164.21718 | 36391 ft | 490 kts | 298° |
| 2026-04-28 20:02 | -40.35986 | 164.13942 | 36396 ft | 490 kts | 298° |
| 2026-04-28 20:02 | -40.33195 | 164.07480 | 36389 ft | 490 kts | 298° |
| 2026-04-28 20:03 | -40.29273 | 163.98427 | 36393 ft | 490 kts | 298° |
| 2026-04-28 20:03 | -40.25896 | 163.90658 | 36392 ft | 491 kts | 298° |
| 2026-04-28 20:04 | -40.23063 | 163.84157 | 36395 ft | 491 kts | 298° |
| 2026-04-28 20:04 | -40.19695 | 163.76448 | 36393 ft | 491 kts | 298° |
| 2026-04-28 20:05 | -40.16300 | 163.68697 | 36392 ft | 491 kts | 298° |
| 2026-04-28 20:05 | -40.12893 | 163.60940 | 36391 ft | 491 kts | 298° |
| 2026-04-28 20:06 | -40.09485 | 163.53191 | 36391 ft | 492 kts | 298° |
| 2026-04-28 20:06 | -40.06073 | 163.45454 | 36389 ft | 492 kts | 298° |
| 2026-04-28 20:07 | -40.02655 | 163.37714 | 36390 ft | 492 kts | 298° |
| 2026-04-28 20:07 | -39.99226 | 163.29976 | 36389 ft | 492 kts | 298° |
| 2026-04-28 20:08 | -39.95795 | 163.22251 | 36387 ft | 493 kts | 298° |
| 2026-04-28 20:08 | -39.92351 | 163.14516 | 36388 ft | 493 kts | 298° |
| 2026-04-28 20:09 | -39.88900 | 163.06791 | 36388 ft | 493 kts | 298° |
| 2026-04-28 20:09 | -39.85471 | 162.99134 | 36385 ft | 493 kts | 298° |
| 2026-04-28 20:10 | -39.82007 | 162.91422 | 36388 ft | 493 kts | 298° |
| 2026-04-28 20:10 | -39.78542 | 162.83722 | 36388 ft | 493 kts | 298° |
| 2026-04-28 20:11 | -39.75073 | 162.76033 | 36388 ft | 493 kts | 298° |
| 2026-04-28 20:11 | -39.71596 | 162.68348 | 36387 ft | 494 kts | 299° |
| 2026-04-28 20:12 | -39.68110 | 162.60661 | 36390 ft | 494 kts | 299° |
| 2026-04-28 20:12 | -39.64615 | 162.52979 | 36389 ft | 494 kts | 299° |
| 2026-04-28 20:13 | -39.61116 | 162.45301 | 36387 ft | 494 kts | 299° |
| 2026-04-28 20:13 | -39.57634 | 162.37676 | 36389 ft | 494 kts | 299° |
| 2026-04-28 20:14 | -39.54123 | 162.30012 | 36390 ft | 494 kts | 299° |
| 2026-04-28 20:14 | -39.50611 | 162.22363 | 36390 ft | 494 kts | 299° |
| 2026-04-28 20:15 | -39.47091 | 162.14713 | 36388 ft | 494 kts | 299° |
| 2026-04-28 20:15 | -39.43566 | 162.07071 | 36392 ft | 495 kts | 299° |
| 2026-04-28 20:16 | -39.40031 | 161.99430 | 36393 ft | 495 kts | 299° |
| 2026-04-28 20:16 | -39.36492 | 161.91797 | 36392 ft | 495 kts | 299° |
| 2026-04-28 20:17 | -39.32950 | 161.84174 | 36392 ft | 495 kts | 299° |
| 2026-04-28 20:17 | -39.29395 | 161.76544 | 36395 ft | 495 kts | 299° |
| 2026-04-28 20:18 | -39.25863 | 161.68981 | 36399 ft | 495 kts | 299° |
| 2026-04-28 20:18 | -39.22301 | 161.61371 | 36395 ft | 495 kts | 299° |
| 2026-04-28 20:19 | -39.18734 | 161.53770 | 36394 ft | 496 kts | 300° |
| 2026-04-28 20:19 | -39.15159 | 161.46169 | 36391 ft | 496 kts | 300° |
| 2026-04-28 20:20 | -39.11578 | 161.38573 | 36392 ft | 496 kts | 300° |
| 2026-04-28 20:20 | -39.07992 | 161.30986 | 36395 ft | 496 kts | 300° |
| 2026-04-28 20:21 | -39.04401 | 161.23405 | 36396 ft | 496 kts | 300° |
| 2026-04-28 20:21 | -39.00805 | 161.15832 | 36394 ft | 496 kts | 300° |
| 2026-04-28 20:22 | -38.97199 | 161.08256 | 36390 ft | 497 kts | 300° |
| 2026-04-28 20:22 | -38.93610 | 161.00735 | 36394 ft | 497 kts | 300° |
| 2026-04-28 20:23 | -38.89991 | 160.93168 | 36392 ft | 497 kts | 300° |
| 2026-04-28 20:23 | -38.86366 | 160.85605 | 36393 ft | 498 kts | 300° |
| 2026-04-28 20:24 | -38.82735 | 160.78049 | 36396 ft | 498 kts | 300° |
| 2026-04-28 20:24 | -38.79094 | 160.70490 | 36394 ft | 498 kts | 300° |
| 2026-04-28 20:25 | -38.75448 | 160.62938 | 36392 ft | 498 kts | 300° |
| 2026-04-28 20:25 | -38.71787 | 160.55374 | 36395 ft | 498 kts | 300° |
| 2026-04-28 20:26 | -38.68125 | 160.47825 | 36395 ft | 499 kts | 300° |
| 2026-04-28 20:26 | -38.64462 | 160.40291 | 36395 ft | 499 kts | 300° |
| 2026-04-28 20:27 | -38.60812 | 160.32800 | 36395 ft | 499 kts | 300° |
| 2026-04-28 20:27 | -38.57135 | 160.25273 | 36395 ft | 499 kts | 300° |
| 2026-04-28 20:28 | -38.53447 | 160.17743 | 36395 ft | 500 kts | 300° |
| 2026-04-28 20:28 | -38.49753 | 160.10215 | 36397 ft | 500 kts | 300° |
| 2026-04-28 20:29 | -38.46056 | 160.02700 | 36395 ft | 500 kts | 300° |
| 2026-04-28 20:29 | -38.42355 | 159.95193 | 36397 ft | 500 kts | 300° |
| 2026-04-28 20:30 | -38.38641 | 159.87677 | 36399 ft | 500 kts | 300° |
| 2026-04-28 20:30 | -38.34928 | 159.80183 | 36398 ft | 500 kts | 300° |
| 2026-04-28 20:31 | -38.31205 | 159.72682 | 36397 ft | 501 kts | 300° |
| 2026-04-28 20:31 | -38.27500 | 159.65238 | 36393 ft | 501 kts | 300° |
| 2026-04-28 20:32 | -38.23765 | 159.57750 | 36394 ft | 501 kts | 300° |
| 2026-04-28 20:32 | -38.20026 | 159.50270 | 36396 ft | 501 kts | 300° |
| 2026-04-28 20:33 | -38.16277 | 159.42788 | 36397 ft | 502 kts | 300° |
| 2026-04-28 20:33 | -38.12522 | 159.35312 | 36401 ft | 502 kts | 300° |
| 2026-04-28 20:34 | -38.08757 | 159.27832 | 36398 ft | 502 kts | 300° |
| 2026-04-28 20:34 | -38.05013 | 159.20411 | 36400 ft | 502 kts | 300° |
| 2026-04-28 20:35 | -38.01239 | 159.12946 | 36401 ft | 502 kts | 300° |
| 2026-04-28 20:35 | -37.97461 | 159.05493 | 36397 ft | 502 kts | 300° |
| 2026-04-28 20:36 | -37.93680 | 158.98049 | 36399 ft | 502 kts | 300° |
| 2026-04-28 20:36 | -37.89891 | 158.90606 | 36399 ft | 502 kts | 300° |
| 2026-04-28 20:37 | -37.86099 | 158.83176 | 36399 ft | 503 kts | 300° |
| 2026-04-28 20:37 | -37.82300 | 158.75748 | 36407 ft | 503 kts | 300° |
| 2026-04-28 20:38 | -37.78495 | 158.68325 | 36395 ft | 503 kts | 300° |
| 2026-04-28 20:38 | -37.74682 | 158.60904 | 36390 ft | 503 kts | 300° |
| 2026-04-28 20:39 | -37.70867 | 158.53495 | 36409 ft | 503 kts | 300° |
| 2026-04-28 20:39 | -37.67044 | 158.46087 | 36400 ft | 503 kts | 300° |
| 2026-04-28 20:40 | -37.63214 | 158.38683 | 36394 ft | 504 kts | 300° |
| 2026-04-28 20:40 | -37.59404 | 158.31334 | 36408 ft | 503 kts | 300° |
| 2026-04-28 20:41 | -37.55561 | 158.23937 | 36405 ft | 503 kts | 300° |
| 2026-04-28 20:41 | -37.51715 | 158.16551 | 36403 ft | 504 kts | 301° |
| 2026-04-28 20:42 | -37.47861 | 158.09169 | 36407 ft | 504 kts | 301° |
| 2026-04-28 20:42 | -37.44007 | 158.01802 | 36408 ft | 504 kts | 301° |
| 2026-04-28 20:43 | -37.40170 | 157.94485 | 36403 ft | 504 kts | 301° |
| 2026-04-28 20:43 | -37.36306 | 157.87132 | 36406 ft | 504 kts | 301° |
| 2026-04-28 20:44 | -37.32434 | 157.79781 | 36400 ft | 504 kts | 301° |
| 2026-04-28 20:44 | -37.28559 | 157.72440 | 36405 ft | 505 kts | 301° |
| 2026-04-28 20:45 | -37.24673 | 157.65095 | 36408 ft | 505 kts | 301° |
| 2026-04-28 20:45 | -37.20784 | 157.57759 | 36403 ft | 505 kts | 301° |
| 2026-04-28 20:46 | -37.16890 | 157.50429 | 36405 ft | 505 kts | 301° |
| 2026-04-28 20:46 | -37.12994 | 157.43114 | 36407 ft | 505 kts | 301° |
| 2026-04-28 20:47 | -37.09085 | 157.35789 | 36404 ft | 505 kts | 301° |
| 2026-04-28 20:47 | -37.05201 | 157.28527 | 36404 ft | 505 kts | 301° |
| 2026-04-28 20:48 | -37.01290 | 157.21230 | 36405 ft | 505 kts | 301° |
| 2026-04-28 20:48 | -36.97368 | 157.13929 | 36405 ft | 505 kts | 301° |
| 2026-04-28 20:49 | -36.93444 | 157.06639 | 36407 ft | 505 kts | 301° |
| 2026-04-28 20:49 | -36.89515 | 156.99357 | 36404 ft | 505 kts | 301° |
| 2026-04-28 20:50 | -36.85582 | 156.92082 | 36404 ft | 505 kts | 301° |
| 2026-04-28 20:50 | -36.81669 | 156.84861 | 36403 ft | 505 kts | 301° |
| 2026-04-28 20:51 | -36.77724 | 156.77595 | 36407 ft | 505 kts | 301° |
| 2026-04-28 20:51 | -36.73778 | 156.70343 | 36405 ft | 505 kts | 301° |
| 2026-04-28 20:52 | -36.69824 | 156.63092 | 36406 ft | 506 kts | 301° |
| 2026-04-28 20:52 | -36.66535 | 156.57072 | 36409 ft | 506 kts | 301° |
| 2026-04-28 20:53 | -36.60591 | 156.46221 | 36405 ft | 506 kts | 301° |
| 2026-04-28 20:53 | -36.56613 | 156.38977 | 36404 ft | 506 kts | 301° |
| 2026-04-28 20:54 | -36.52634 | 156.31748 | 36406 ft | 506 kts | 301° |
| 2026-04-28 20:54 | -36.48679 | 156.24577 | 36406 ft | 506 kts | 301° |
| 2026-04-28 20:55 | -36.44694 | 156.17367 | 36410 ft | 506 kts | 301° |
| 2026-04-28 20:55 | -36.40700 | 156.10157 | 36409 ft | 506 kts | 301° |
| 2026-04-28 20:56 | -36.36703 | 156.02955 | 36411 ft | 506 kts | 301° |
| 2026-04-28 20:56 | -36.32704 | 155.95766 | 36406 ft | 506 kts | 301° |
| 2026-04-28 20:57 | -36.28703 | 155.88589 | 36404 ft | 506 kts | 301° |
| 2026-04-28 20:57 | -36.24696 | 155.81415 | 36406 ft | 506 kts | 301° |
| 2026-04-28 20:58 | -36.20689 | 155.74256 | 36410 ft | 506 kts | 301° |
| 2026-04-28 20:58 | -36.16677 | 155.67103 | 36409 ft | 506 kts | 302° |
| 2026-04-28 20:59 | -36.12657 | 155.59951 | 36415 ft | 506 kts | 302° |
| 2026-04-28 20:59 | -36.08661 | 155.52856 | 36407 ft | 506 kts | 302° |
| 2026-04-28 21:00 | -36.04636 | 155.45725 | 36423 ft | 505 kts | 302° |
| 2026-04-28 21:00 | -36.00613 | 155.38612 | 36408 ft | 505 kts | 302° |
| 2026-04-28 21:01 | -35.96586 | 155.31507 | 36417 ft | 505 kts | 302° |
| 2026-04-28 21:01 | -35.92552 | 155.24404 | 36414 ft | 505 kts | 302° |
| 2026-04-28 21:02 | -35.88520 | 155.17319 | 36413 ft | 505 kts | 302° |
| 2026-04-28 21:02 | -35.84481 | 155.10235 | 36411 ft | 505 kts | 302° |
| 2026-04-28 21:03 | -35.80435 | 155.03154 | 36406 ft | 505 kts | 302° |
| 2026-04-28 21:03 | -35.76414 | 154.96132 | 36410 ft | 505 kts | 302° |
| 2026-04-28 21:04 | -35.72361 | 154.89067 | 36405 ft | 505 kts | 302° |
| 2026-04-28 21:04 | -35.68304 | 154.82011 | 36410 ft | 505 kts | 302° |
| 2026-04-28 21:05 | -35.64243 | 154.74962 | 36413 ft | 505 kts | 302° |
| 2026-04-28 21:05 | -35.60314 | 154.67818 | 36410 ft | 502 kts | 297° |
| 2026-04-28 21:06 | -35.56862 | 154.60375 | 36405 ft | 502 kts | 296° |
| 2026-04-28 21:06 | -35.53480 | 154.52876 | 36404 ft | 501 kts | 295° |
| 2026-04-28 21:07 | -35.50130 | 154.45446 | 36399 ft | 501 kts | 296° |
| 2026-04-28 21:07 | -35.46745 | 154.37980 | 36403 ft | 500 kts | 296° |
| 2026-04-28 21:08 | -35.43354 | 154.30530 | 36400 ft | 500 kts | 296° |
| 2026-04-28 21:08 | -35.39958 | 154.23091 | 36400 ft | 500 kts | 296° |
| 2026-04-28 21:09 | -35.36559 | 154.15659 | 36403 ft | 499 kts | 296° |
| 2026-04-28 21:09 | -35.33162 | 154.08247 | 36401 ft | 499 kts | 296° |
| 2026-04-28 21:10 | -35.29757 | 154.00834 | 36399 ft | 499 kts | 296° |
| 2026-04-28 21:10 | -35.26348 | 153.93430 | 36400 ft | 499 kts | 296° |
| 2026-04-28 21:11 | -35.22941 | 153.86043 | 36397 ft | 499 kts | 296° |
| 2026-04-28 21:11 | -35.19548 | 153.78703 | 36399 ft | 499 kts | 296° |
| 2026-04-28 21:12 | -35.16129 | 153.71324 | 36401 ft | 498 kts | 296° |
| 2026-04-28 21:12 | -35.12708 | 153.63955 | 36403 ft | 498 kts | 296° |
| 2026-04-28 21:13 | -35.09286 | 153.56603 | 36395 ft | 498 kts | 296° |
| 2026-04-28 21:13 | -35.05860 | 153.49255 | 36396 ft | 498 kts | 296° |
| 2026-04-28 21:14 | -35.02436 | 153.41926 | 36399 ft | 498 kts | 296° |
| 2026-04-28 21:14 | -34.98998 | 153.34584 | 36395 ft | 498 kts | 296° |
| 2026-04-28 21:15 | -34.95583 | 153.27306 | 36392 ft | 498 kts | 296° |
| 2026-04-28 21:15 | -34.92143 | 153.19991 | 36391 ft | 497 kts | 296° |
| 2026-04-28 21:16 | -34.88697 | 153.12680 | 36390 ft | 497 kts | 296° |
| 2026-04-28 21:16 | -34.85247 | 153.05374 | 36388 ft | 497 kts | 296° |
| 2026-04-28 21:17 | -34.81795 | 152.98080 | 36388 ft | 497 kts | 297° |
| 2026-04-28 21:17 | -34.78339 | 152.90791 | 36390 ft | 497 kts | 297° |
| 2026-04-28 21:18 | -34.74882 | 152.83516 | 36394 ft | 497 kts | 297° |
| 2026-04-28 21:18 | -34.71423 | 152.76253 | 36391 ft | 496 kts | 297° |
| 2026-04-28 21:19 | -34.67958 | 152.68993 | 36391 ft | 496 kts | 297° |
| 2026-04-28 21:19 | -34.64513 | 152.61790 | 36391 ft | 496 kts | 297° |
| 2026-04-28 21:20 | -34.61045 | 152.54551 | 36388 ft | 496 kts | 297° |
| 2026-04-28 21:20 | -34.57573 | 152.47320 | 36389 ft | 495 kts | 297° |
| 2026-04-28 21:21 | -34.54096 | 152.40093 | 36389 ft | 495 kts | 297° |
| 2026-04-28 21:21 | -34.50621 | 152.32886 | 36391 ft | 495 kts | 297° |
| 2026-04-28 21:22 | -34.47138 | 152.25677 | 36390 ft | 495 kts | 297° |
| 2026-04-28 21:22 | -34.44243 | 152.19697 | 36390 ft | 495 kts | 297° |
| 2026-04-28 21:23 | -34.40186 | 152.11332 | 36390 ft | 495 kts | 297° |
| 2026-04-28 21:23 | -34.36695 | 152.04152 | 36389 ft | 494 kts | 297° |
| 2026-04-28 21:24 | -34.33201 | 151.96980 | 36387 ft | 494 kts | 297° |
| 2026-04-28 21:24 | -34.29702 | 151.89824 | 36387 ft | 494 kts | 297° |
| 2026-04-28 21:25 | -34.26207 | 151.82676 | 36386 ft | 494 kts | 297° |
| 2026-04-28 21:25 | -34.22735 | 151.75585 | 36381 ft | 493 kts | 297° |
| 2026-04-28 21:26 | -34.19227 | 151.68441 | 36383 ft | 493 kts | 297° |
| 2026-04-28 21:26 | -34.15720 | 151.61314 | 36386 ft | 493 kts | 297° |
| 2026-04-28 21:27 | -34.12213 | 151.54205 | 36387 ft | 493 kts | 297° |
| 2026-04-28 21:27 | -34.08704 | 151.47104 | 36383 ft | 492 kts | 297° |
| 2026-04-28 21:28 | -34.05194 | 151.40013 | 36381 ft | 492 kts | 297° |
| 2026-04-28 21:28 | -34.01708 | 151.32987 | 36376 ft | 492 kts | 297° |
| 2026-04-28 21:29 | -33.98543 | 151.26618 | 36373 ft | 492 kts | 297° |
| 2026-04-28 21:29 | -33.95100 | 151.19509 | 36369 ft | 489 kts | 293° |
| 2026-04-28 21:30 | -33.92695 | 151.11913 | 36374 ft | 484 kts | 285° |
| 2026-04-28 21:30 | -33.90662 | 151.04185 | 36373 ft | 484 kts | 284° |
| 2026-04-28 21:31 | -33.88677 | 150.96448 | 36386 ft | 483 kts | 284° |
| 2026-04-28 21:31 | -33.86678 | 150.88746 | 36390 ft | 482 kts | 284° |
| 2026-04-28 21:32 | -33.84657 | 150.81044 | 36406 ft | 482 kts | 284° |
| 2026-04-28 21:32 | -33.82627 | 150.73348 | 36408 ft | 482 kts | 284° |
| 2026-04-28 21:33 | -33.80612 | 150.65728 | 36414 ft | 481 kts | 284° |
| 2026-04-28 21:33 | -33.78579 | 150.58062 | 36419 ft | 481 kts | 284° |
| 2026-04-28 21:34 | -33.76546 | 150.50409 | 36422 ft | 481 kts | 284° |
| 2026-04-28 21:34 | -33.74507 | 150.42764 | 36425 ft | 480 kts | 285° |
| 2026-04-28 21:35 | -33.72465 | 150.35127 | 36435 ft | 480 kts | 285° |
| 2026-04-28 21:35 | -33.70420 | 150.27490 | 36433 ft | 479 kts | 285° |
| 2026-04-28 21:36 | -33.68359 | 150.19885 | 36449 ft | 479 kts | 285° |
| 2026-04-28 21:36 | -33.66286 | 150.12296 | 36452 ft | 478 kts | 285° |
| 2026-04-28 21:37 | -33.64209 | 150.04702 | 36437 ft | 478 kts | 285° |
| 2026-04-28 21:37 | -33.62134 | 149.97127 | 36454 ft | 478 kts | 285° |
| 2026-04-28 21:38 | -33.60068 | 149.89598 | 36457 ft | 477 kts | 285° |
| 2026-04-28 21:38 | -33.57988 | 149.82039 | 36460 ft | 477 kts | 285° |
| 2026-04-28 21:39 | -33.55902 | 149.74480 | 36464 ft | 477 kts | 285° |
| 2026-04-28 21:39 | -33.53814 | 149.66935 | 36470 ft | 477 kts | 285° |
| 2026-04-28 21:40 | -33.51721 | 149.59389 | 36470 ft | 476 kts | 285° |
| 2026-04-28 21:40 | -33.49639 | 149.51906 | 36469 ft | 476 kts | 285° |
| 2026-04-28 21:41 | -33.47537 | 149.44369 | 36467 ft | 476 kts | 286° |
| 2026-04-28 21:41 | -33.45438 | 149.36861 | 36466 ft | 475 kts | 286° |
| 2026-04-28 21:42 | -33.43690 | 149.30624 | 36460 ft | 475 kts | 286° |
| 2026-04-28 21:42 | -33.41579 | 149.23117 | 36454 ft | 475 kts | 286° |
| 2026-04-28 21:43 | -33.39470 | 149.15631 | 36444 ft | 475 kts | 286° |
| 2026-04-28 21:43 | -33.37355 | 149.08144 | 36443 ft | 474 kts | 286° |
| 2026-04-28 21:44 | -33.35242 | 149.00681 | 36436 ft | 474 kts | 286° |
| 2026-04-28 21:44 | -33.33121 | 148.93211 | 36433 ft | 474 kts | 286° |
| 2026-04-28 21:45 | -33.30996 | 148.85750 | 36432 ft | 473 kts | 286° |
| 2026-04-28 21:45 | -33.28871 | 148.78304 | 36429 ft | 473 kts | 287° |
| 2026-04-28 21:46 | -33.26755 | 148.70910 | 36427 ft | 473 kts | 287° |
| 2026-04-28 21:46 | -33.24622 | 148.63476 | 36427 ft | 473 kts | 287° |
| 2026-04-28 21:47 | -33.22489 | 148.56061 | 36424 ft | 472 kts | 287° |
| 2026-04-28 21:47 | -33.20349 | 148.48639 | 36420 ft | 472 kts | 287° |
| 2026-04-28 21:48 | -33.18207 | 148.41229 | 36419 ft | 472 kts | 287° |
| 2026-04-28 21:48 | -33.16062 | 148.33825 | 36412 ft | 472 kts | 287° |
| 2026-04-28 21:49 | -33.13896 | 148.26443 | 36411 ft | 472 kts | 289° |
| 2026-04-28 21:49 | -33.10839 | 148.19481 | 36406 ft | 475 kts | 299° |
| 2026-04-28 21:50 | -33.07312 | 148.12870 | 36411 ft | 475 kts | 301° |
| 2026-04-28 21:50 | -33.03697 | 148.06277 | 36411 ft | 475 kts | 301° |
| 2026-04-28 21:51 | -33.00086 | 147.99680 | 36408 ft | 475 kts | 300° |
| 2026-04-28 21:51 | -32.96489 | 147.93087 | 36405 ft | 474 kts | 300° |
| 2026-04-28 21:52 | -32.92891 | 147.86489 | 36402 ft | 474 kts | 300° |
| 2026-04-28 21:52 | -32.89293 | 147.79901 | 36398 ft | 474 kts | 300° |
| 2026-04-28 21:53 | -32.85695 | 147.73328 | 36402 ft | 474 kts | 300° |
| 2026-04-28 21:53 | -32.82097 | 147.66765 | 36402 ft | 474 kts | 300° |
| 2026-04-28 21:54 | -32.78497 | 147.60213 | 36395 ft | 473 kts | 300° |
| 2026-04-28 21:54 | -32.74894 | 147.53666 | 36398 ft | 473 kts | 301° |
| 2026-04-28 21:55 | -32.71313 | 147.47170 | 36399 ft | 473 kts | 301° |
| 2026-04-28 21:55 | -32.67706 | 147.40638 | 36396 ft | 473 kts | 301° |
| 2026-04-28 21:56 | -32.64096 | 147.34111 | 36399 ft | 473 kts | 301° |
| 2026-04-28 21:56 | -32.60481 | 147.27588 | 36393 ft | 473 kts | 301° |
| 2026-04-28 21:57 | -32.56860 | 147.21067 | 36392 ft | 473 kts | 301° |
| 2026-04-28 21:57 | -32.53240 | 147.14557 | 36392 ft | 473 kts | 301° |
| 2026-04-28 21:58 | -32.49611 | 147.08042 | 36394 ft | 473 kts | 301° |
| 2026-04-28 21:58 | -32.45977 | 147.01530 | 36394 ft | 474 kts | 301° |
| 2026-04-28 21:59 | -32.42345 | 146.95033 | 36395 ft | 474 kts | 301° |
| 2026-04-28 22:00 | -32.36882 | 146.85282 | 36395 ft | 474 kts | 301° |
| 2026-04-28 22:00 | -32.33236 | 146.78786 | 36395 ft | 474 kts | 301° |
| 2026-04-28 22:01 | -32.29582 | 146.72289 | 36392 ft | 474 kts | 301° |
| 2026-04-28 22:01 | -32.25922 | 146.65793 | 36390 ft | 474 kts | 301° |
| 2026-04-28 22:02 | -32.22261 | 146.59306 | 36390 ft | 475 kts | 301° |
| 2026-04-28 22:02 | -32.18617 | 146.52860 | 36389 ft | 475 kts | 301° |
| 2026-04-28 22:03 | -32.14945 | 146.46374 | 36386 ft | 475 kts | 301° |
| 2026-04-28 22:03 | -32.11272 | 146.39898 | 36387 ft | 475 kts | 301° |
| 2026-04-28 22:04 | -32.07593 | 146.33424 | 36387 ft | 475 kts | 301° |
| 2026-04-28 22:04 | -32.03914 | 146.26960 | 36380 ft | 475 kts | 301° |
| 2026-04-28 22:05 | -32.00229 | 146.20495 | 36395 ft | 475 kts | 301° |
| 2026-04-28 22:05 | -31.96541 | 146.14036 | 36379 ft | 475 kts | 301° |
| 2026-04-28 22:06 | -31.92848 | 146.07581 | 36375 ft | 475 kts | 301° |
| 2026-04-28 22:06 | -31.89179 | 146.01177 | 36387 ft | 475 kts | 301° |
| 2026-04-28 22:07 | -31.85480 | 145.94732 | 36375 ft | 475 kts | 301° |
| 2026-04-28 22:07 | -31.81784 | 145.88303 | 36377 ft | 475 kts | 301° |
| 2026-04-28 22:08 | -31.78080 | 145.81871 | 36378 ft | 475 kts | 301° |
| 2026-04-28 22:08 | -31.74372 | 145.75445 | 36373 ft | 475 kts | 301° |
| 2026-04-28 22:09 | -31.70664 | 145.69027 | 36373 ft | 475 kts | 301° |
| 2026-04-28 22:09 | -31.66954 | 145.62617 | 36376 ft | 474 kts | 301° |
| 2026-04-28 22:10 | -31.63262 | 145.56249 | 36368 ft | 474 kts | 301° |
| 2026-04-28 22:10 | -31.59548 | 145.49853 | 36373 ft | 474 kts | 302° |
| 2026-04-28 22:11 | -31.55829 | 145.43459 | 36363 ft | 474 kts | 302° |
| 2026-04-28 22:11 | -31.52105 | 145.37068 | 36368 ft | 474 kts | 302° |
| 2026-04-28 22:12 | -31.48384 | 145.30690 | 36368 ft | 474 kts | 302° |
| 2026-04-28 22:12 | -31.44662 | 145.24322 | 36368 ft | 474 kts | 302° |
| 2026-04-28 22:13 | -31.40937 | 145.17961 | 36364 ft | 473 kts | 302° |
| 2026-04-28 22:13 | -31.37231 | 145.11641 | 36361 ft | 473 kts | 302° |
| 2026-04-28 22:14 | -31.33497 | 145.05285 | 36357 ft | 473 kts | 302° |
| 2026-04-28 22:14 | -31.29768 | 144.98946 | 36358 ft | 473 kts | 302° |
| 2026-04-28 22:15 | -31.26033 | 144.92609 | 36354 ft | 473 kts | 302° |
| 2026-04-28 22:15 | -31.22302 | 144.86288 | 36353 ft | 473 kts | 302° |
| 2026-04-28 22:16 | -31.18562 | 144.79963 | 36345 ft | 473 kts | 302° |
| 2026-04-28 22:16 | -31.14848 | 144.73692 | 36352 ft | 473 kts | 302° |
| 2026-04-28 22:17 | -31.11108 | 144.67385 | 36349 ft | 473 kts | 302° |
| 2026-04-28 22:17 | -31.07365 | 144.61085 | 36349 ft | 473 kts | 302° |
| 2026-04-28 22:18 | -31.03617 | 144.54787 | 36345 ft | 473 kts | 302° |
| 2026-04-28 22:18 | -30.99860 | 144.48483 | 36351 ft | 473 kts | 302° |
| 2026-04-28 22:19 | -30.96106 | 144.42196 | 36348 ft | 473 kts | 302° |
| 2026-04-28 22:19 | -30.92346 | 144.35907 | 36348 ft | 473 kts | 302° |
| 2026-04-28 22:20 | -30.88581 | 144.29621 | 36350 ft | 473 kts | 302° |
| 2026-04-28 22:20 | -30.84816 | 144.23343 | 36350 ft | 473 kts | 302° |
| 2026-04-28 22:21 | -30.81073 | 144.17114 | 36348 ft | 473 kts | 302° |
| 2026-04-28 22:21 | -30.77301 | 144.10847 | 36345 ft | 473 kts | 302° |
| 2026-04-28 22:22 | -30.73525 | 144.04581 | 36348 ft | 473 kts | 301° |
| 2026-04-28 22:22 | -30.69745 | 143.98319 | 36347 ft | 473 kts | 301° |
| 2026-04-28 22:23 | -30.65955 | 143.92051 | 36349 ft | 474 kts | 301° |
| 2026-04-28 22:23 | -30.62168 | 143.85797 | 36349 ft | 474 kts | 301° |
| 2026-04-28 22:24 | -30.58376 | 143.79545 | 36345 ft | 473 kts | 301° |
| 2026-04-28 22:24 | -30.54578 | 143.73293 | 36347 ft | 473 kts | 301° |
| 2026-04-28 22:25 | -30.50784 | 143.67058 | 36347 ft | 473 kts | 301° |
| 2026-04-28 22:25 | -30.46983 | 143.60820 | 36346 ft | 473 kts | 301° |
| 2026-04-28 22:26 | -30.43203 | 143.54627 | 36347 ft | 473 kts | 301° |
| 2026-04-28 22:26 | -30.39378 | 143.48368 | 36345 ft | 473 kts | 301° |
| 2026-04-28 22:27 | -30.35607 | 143.42209 | 36339 ft | 472 kts | 301° |
| 2026-04-28 22:27 | -30.31804 | 143.36006 | 36339 ft | 472 kts | 301° |
| 2026-04-28 22:28 | -30.27996 | 143.29805 | 36336 ft | 472 kts | 301° |
| 2026-04-28 22:28 | -30.24189 | 143.23616 | 36337 ft | 472 kts | 301° |
| 2026-04-28 22:29 | -30.20382 | 143.17436 | 36335 ft | 472 kts | 301° |
| 2026-04-28 22:29 | -30.16571 | 143.11259 | 36332 ft | 471 kts | 301° |
| 2026-04-28 22:30 | -30.13401 | 143.06133 | 36332 ft | 471 kts | 301° |
| 2026-04-28 22:30 | -30.09582 | 142.99965 | 36332 ft | 471 kts | 301° |
| 2026-04-28 22:31 | -30.05146 | 142.92813 | 36330 ft | 471 kts | 301° |
| 2026-04-28 22:31 | -30.01332 | 142.86674 | 36325 ft | 471 kts | 301° |
| 2026-04-28 22:32 | -29.98133 | 142.81531 | 36328 ft | 471 kts | 301° |
| 2026-04-28 22:32 | -29.94335 | 142.75434 | 36324 ft | 471 kts | 301° |
| 2026-04-28 22:33 | -29.90486 | 142.69266 | 36326 ft | 471 kts | 301° |
| 2026-04-28 22:33 | -29.86686 | 142.63196 | 36327 ft | 470 kts | 301° |
| 2026-04-28 22:34 | -29.82859 | 142.57081 | 36327 ft | 470 kts | 301° |
| 2026-04-28 22:34 | -29.79033 | 142.50975 | 36325 ft | 470 kts | 301° |
| 2026-04-28 22:35 | -29.75206 | 142.44881 | 36327 ft | 469 kts | 302° |
| 2026-04-28 22:35 | -29.71379 | 142.38797 | 36342 ft | 469 kts | 302° |
| 2026-04-28 22:36 | -29.67556 | 142.32728 | 36321 ft | 468 kts | 302° |
| 2026-04-28 22:36 | -29.63733 | 142.26669 | 36319 ft | 468 kts | 302° |
| 2026-04-28 22:37 | -29.59911 | 142.20619 | 36334 ft | 467 kts | 302° |
| 2026-04-28 22:37 | -29.56094 | 142.14586 | 36330 ft | 467 kts | 302° |
| 2026-04-28 22:38 | -29.52276 | 142.08560 | 36318 ft | 466 kts | 302° |
| 2026-04-28 22:38 | -29.48478 | 142.02575 | 36325 ft | 466 kts | 302° |
| 2026-04-28 22:39 | -29.44660 | 141.96568 | 36320 ft | 466 kts | 302° |
| 2026-04-28 22:39 | -29.40840 | 141.90565 | 36325 ft | 465 kts | 302° |
| 2026-04-28 22:40 | -29.37016 | 141.84566 | 36322 ft | 465 kts | 302° |
| 2026-04-28 22:40 | -29.33198 | 141.78584 | 36321 ft | 465 kts | 302° |
| 2026-04-28 22:41 | -29.29372 | 141.72599 | 36317 ft | 465 kts | 303° |
| 2026-04-28 22:41 | -29.25551 | 141.66629 | 36321 ft | 465 kts | 303° |
| 2026-04-28 22:42 | -29.21748 | 141.60698 | 36313 ft | 465 kts | 303° |
| 2026-04-28 22:42 | -29.17922 | 141.54737 | 36313 ft | 465 kts | 303° |
| 2026-04-28 22:43 | -29.14089 | 141.48776 | 36314 ft | 464 kts | 303° |
| 2026-04-28 22:43 | -29.10255 | 141.42821 | 36311 ft | 464 kts | 303° |
| 2026-04-28 22:44 | -29.06422 | 141.36876 | 36311 ft | 464 kts | 303° |
| 2026-04-28 22:44 | -29.02591 | 141.30942 | 36312 ft | 463 kts | 303° |
| 2026-04-28 22:45 | -28.98795 | 141.25073 | 36306 ft | 461 kts | 303° |
| 2026-04-28 22:45 | -28.94974 | 141.19172 | 36306 ft | 461 kts | 303° |
| 2026-04-28 22:46 | -28.91158 | 141.13286 | 36304 ft | 461 kts | 303° |
| 2026-04-28 22:46 | -28.87334 | 141.07396 | 36301 ft | 461 kts | 303° |
| 2026-04-28 22:47 | -28.83510 | 141.01516 | 36305 ft | 461 kts | 303° |
| 2026-04-28 22:47 | -28.79684 | 140.95639 | 36299 ft | 461 kts | 303° |
| 2026-04-28 22:48 | -28.75877 | 140.89802 | 36301 ft | 461 kts | 303° |
| 2026-04-28 22:48 | -28.72044 | 140.83931 | 36302 ft | 461 kts | 303° |
| 2026-04-28 22:49 | -28.68208 | 140.78064 | 36300 ft | 461 kts | 303° |
| 2026-04-28 22:49 | -28.64372 | 140.72206 | 36299 ft | 461 kts | 303° |
| 2026-04-28 22:50 | -28.60531 | 140.66349 | 36296 ft | 461 kts | 303° |
| 2026-04-28 22:50 | -28.56691 | 140.60501 | 36296 ft | 461 kts | 303° |
| 2026-04-28 22:51 | -28.52850 | 140.54658 | 36289 ft | 461 kts | 303° |
| 2026-04-28 22:51 | -28.48999 | 140.48810 | 36286 ft | 461 kts | 303° |
| 2026-04-28 22:52 | -28.45149 | 140.42970 | 36287 ft | 461 kts | 303° |
| 2026-04-28 22:52 | -28.41321 | 140.37173 | 36282 ft | 461 kts | 303° |
| 2026-04-28 22:53 | -28.37464 | 140.31339 | 36287 ft | 462 kts | 303° |
| 2026-04-28 22:53 | -28.33599 | 140.25500 | 36286 ft | 462 kts | 303° |
| 2026-04-28 22:54 | -28.29738 | 140.19677 | 36283 ft | 462 kts | 303° |
| 2026-04-28 22:54 | -28.25895 | 140.13888 | 36278 ft | 462 kts | 303° |
| 2026-04-28 22:55 | -28.22008 | 140.08041 | 36280 ft | 461 kts | 303° |
| 2026-04-28 22:55 | -28.18162 | 140.02264 | 36284 ft | 461 kts | 303° |
| 2026-04-28 22:56 | -28.14288 | 139.96451 | 36270 ft | 461 kts | 303° |
| 2026-04-28 22:56 | -28.10415 | 139.90650 | 36269 ft | 461 kts | 303° |
| 2026-04-28 22:57 | -28.06545 | 139.84859 | 36287 ft | 461 kts | 303° |
| 2026-04-28 22:57 | -28.02670 | 139.79069 | 36282 ft | 461 kts | 303° |
| 2026-04-28 22:58 | -27.98817 | 139.73320 | 36280 ft | 461 kts | 303° |
| 2026-04-28 22:58 | -27.94912 | 139.67500 | 36275 ft | 461 kts | 303° |
| 2026-04-28 22:59 | -27.91057 | 139.61765 | 36277 ft | 461 kts | 303° |
| 2026-04-28 22:59 | -27.87167 | 139.55984 | 36276 ft | 461 kts | 304° |
| 2026-04-28 23:00 | -27.83288 | 139.50226 | 36276 ft | 460 kts | 304° |
| 2026-04-28 23:00 | -27.79407 | 139.44474 | 36271 ft | 460 kts | 304° |
| 2026-04-28 23:01 | -27.75527 | 139.38731 | 36274 ft | 460 kts | 304° |
| 2026-04-28 23:01 | -27.71646 | 139.32995 | 36272 ft | 459 kts | 304° |
| 2026-04-28 23:02 | -27.67768 | 139.27270 | 36274 ft | 459 kts | 304° |
| 2026-04-28 23:02 | -27.63916 | 139.21589 | 36271 ft | 459 kts | 304° |
| 2026-04-28 23:03 | -27.60036 | 139.15876 | 36271 ft | 458 kts | 304° |
| 2026-04-28 23:03 | -27.56158 | 139.10175 | 36270 ft | 458 kts | 304° |
| 2026-04-28 23:04 | -27.52279 | 139.04477 | 36265 ft | 458 kts | 304° |
| 2026-04-28 23:04 | -27.46466 | 138.95954 | 36264 ft | 457 kts | 304° |
| 2026-04-28 23:05 | -27.42589 | 138.90279 | 36266 ft | 457 kts | 304° |
| 2026-04-28 23:05 | -27.38714 | 138.84614 | 36258 ft | 456 kts | 304° |
| 2026-04-28 23:06 | -27.34863 | 138.78991 | 36262 ft | 456 kts | 304° |
| 2026-04-28 23:06 | -27.30990 | 138.73344 | 36258 ft | 455 kts | 304° |
| 2026-04-28 23:07 | -27.27122 | 138.67709 | 36257 ft | 455 kts | 304° |
| 2026-04-28 23:07 | -27.23253 | 138.62082 | 36255 ft | 455 kts | 304° |
| 2026-04-28 23:08 | -27.19383 | 138.56460 | 36251 ft | 454 kts | 304° |
| 2026-04-28 23:08 | -27.15518 | 138.50853 | 36250 ft | 454 kts | 304° |
| 2026-04-28 23:09 | -27.11651 | 138.45251 | 36251 ft | 454 kts | 304° |
| 2026-04-28 23:09 | -27.07784 | 138.39654 | 36249 ft | 453 kts | 304° |
| 2026-04-28 23:10 | -27.03921 | 138.34071 | 36254 ft | 453 kts | 304° |
| 2026-04-28 23:10 | -27.00078 | 138.28524 | 36254 ft | 453 kts | 304° |
| 2026-04-28 23:11 | -26.96217 | 138.22956 | 36249 ft | 452 kts | 304° |
| 2026-04-28 23:11 | -26.92357 | 138.17398 | 36249 ft | 452 kts | 304° |
| 2026-04-28 23:12 | -26.88488 | 138.11836 | 36250 ft | 452 kts | 304° |
| 2026-04-28 23:12 | -26.84619 | 138.06281 | 36247 ft | 451 kts | 304° |
| 2026-04-28 23:13 | -26.80761 | 138.00748 | 36241 ft | 451 kts | 304° |
| 2026-04-28 23:13 | -26.76907 | 137.95227 | 36244 ft | 450 kts | 304° |
| 2026-04-28 23:14 | -26.73075 | 137.89746 | 36243 ft | 450 kts | 304° |
| 2026-04-28 23:14 | -26.69219 | 137.84236 | 36239 ft | 449 kts | 304° |
| 2026-04-28 23:15 | -26.65364 | 137.78734 | 36240 ft | 449 kts | 304° |
| 2026-04-28 23:15 | -26.61511 | 137.73243 | 36238 ft | 449 kts | 304° |
| 2026-04-28 23:16 | -26.57658 | 137.67758 | 36239 ft | 449 kts | 304° |
| 2026-04-28 23:16 | -26.53799 | 137.62271 | 36236 ft | 448 kts | 304° |
| 2026-04-28 23:17 | -26.49944 | 137.56795 | 36239 ft | 448 kts | 304° |
| 2026-04-28 23:17 | -26.46112 | 137.51359 | 36232 ft | 448 kts | 304° |
| 2026-04-28 23:18 | -26.42254 | 137.45895 | 36236 ft | 448 kts | 304° |
| 2026-04-28 23:18 | -26.38394 | 137.40433 | 36235 ft | 448 kts | 304° |
| 2026-04-28 23:19 | -26.34539 | 137.34985 | 36233 ft | 448 kts | 304° |
| 2026-04-28 23:19 | -26.30680 | 137.29537 | 36232 ft | 447 kts | 304° |
| 2026-04-28 23:20 | -26.26822 | 137.24097 | 36234 ft | 447 kts | 304° |
| 2026-04-28 23:20 | -26.23609 | 137.19574 | 36230 ft | 447 kts | 304° |
| 2026-04-28 23:21 | -26.19745 | 137.14139 | 36225 ft | 447 kts | 304° |
| 2026-04-28 23:21 | -26.15879 | 137.08706 | 36226 ft | 447 kts | 304° |
| 2026-04-28 23:22 | -26.12013 | 137.03280 | 36229 ft | 447 kts | 304° |
| 2026-04-28 23:22 | -26.08146 | 136.97858 | 36229 ft | 447 kts | 304° |
| 2026-04-28 23:23 | -26.04277 | 136.92442 | 36224 ft | 447 kts | 304° |
| 2026-04-28 23:23 | -26.00408 | 136.87031 | 36231 ft | 447 kts | 304° |
| 2026-04-28 23:24 | -25.96560 | 136.81656 | 36220 ft | 447 kts | 304° |
| 2026-04-28 23:24 | -25.92686 | 136.76251 | 36218 ft | 447 kts | 304° |
| 2026-04-28 23:25 | -25.88811 | 136.70853 | 36225 ft | 447 kts | 304° |
| 2026-04-28 23:25 | -25.84931 | 136.65457 | 36225 ft | 447 kts | 304° |
| 2026-04-28 23:26 | -25.81048 | 136.60057 | 36218 ft | 447 kts | 304° |
| 2026-04-28 23:26 | -25.77172 | 136.54676 | 36221 ft | 446 kts | 304° |
| 2026-04-28 23:27 | -25.73287 | 136.49290 | 36214 ft | 446 kts | 304° |
| 2026-04-28 23:27 | -25.69431 | 136.43949 | 36217 ft | 446 kts | 304° |
| 2026-04-28 23:28 | -25.65551 | 136.38582 | 36218 ft | 446 kts | 304° |
| 2026-04-28 23:28 | -25.61665 | 136.33212 | 36220 ft | 446 kts | 304° |
| 2026-04-28 23:29 | -25.57783 | 136.27855 | 36217 ft | 446 kts | 304° |
| 2026-04-28 23:29 | -25.53899 | 136.22501 | 36219 ft | 446 kts | 304° |
| 2026-04-28 23:30 | -25.50011 | 136.17148 | 36215 ft | 445 kts | 304° |
| 2026-04-28 23:30 | -25.46156 | 136.11846 | 36218 ft | 445 kts | 304° |
| 2026-04-28 23:31 | -25.42274 | 136.06514 | 36217 ft | 445 kts | 304° |
| 2026-04-28 23:31 | -25.38388 | 136.01181 | 36219 ft | 445 kts | 304° |
| 2026-04-28 23:32 | -25.34501 | 135.95853 | 36217 ft | 445 kts | 304° |
| 2026-04-28 23:32 | -25.30615 | 135.90533 | 36218 ft | 444 kts | 304° |
| 2026-04-28 23:33 | -25.26733 | 135.85224 | 36215 ft | 444 kts | 304° |
| 2026-04-28 23:33 | -25.22852 | 135.79921 | 36218 ft | 444 kts | 304° |
| 2026-04-28 23:34 | -25.18968 | 135.74622 | 36219 ft | 444 kts | 305° |
| 2026-04-28 23:34 | -25.15105 | 135.69357 | 36219 ft | 443 kts | 305° |
| 2026-04-28 23:35 | -25.11221 | 135.64070 | 36219 ft | 443 kts | 305° |
| 2026-04-28 23:35 | -25.07334 | 135.58783 | 36222 ft | 443 kts | 305° |
| 2026-04-28 23:36 | -25.03447 | 135.53503 | 36222 ft | 443 kts | 305° |
| 2026-04-28 23:36 | -24.99559 | 135.48228 | 36219 ft | 443 kts | 305° |
| 2026-04-28 23:37 | -24.95667 | 135.42953 | 36219 ft | 443 kts | 305° |
| 2026-04-28 23:37 | -24.91782 | 135.37693 | 36228 ft | 443 kts | 305° |
| 2026-04-28 23:38 | -24.87918 | 135.32467 | 36233 ft | 442 kts | 305° |
| 2026-04-28 23:38 | -24.84032 | 135.27218 | 36215 ft | 442 kts | 305° |
| 2026-04-28 23:39 | -24.80145 | 135.21973 | 36214 ft | 442 kts | 305° |
| 2026-04-28 23:39 | -24.76259 | 135.16736 | 36231 ft | 441 kts | 305° |
| 2026-04-28 23:40 | -24.72381 | 135.11514 | 36227 ft | 441 kts | 305° |
| 2026-04-28 23:40 | -24.68502 | 135.06297 | 36228 ft | 440 kts | 305° |
| 2026-04-28 23:41 | -24.64622 | 135.01084 | 36223 ft | 440 kts | 305° |
| 2026-04-28 23:41 | -24.60743 | 134.95877 | 36231 ft | 440 kts | 305° |
| 2026-04-28 23:42 | -24.56866 | 134.90679 | 36228 ft | 439 kts | 305° |
| 2026-04-28 23:42 | -24.52988 | 134.85487 | 36233 ft | 439 kts | 305° |
| 2026-04-28 23:43 | -24.49115 | 134.80306 | 36230 ft | 439 kts | 305° |
| 2026-04-28 23:43 | -24.45244 | 134.75131 | 36226 ft | 438 kts | 305° |
| 2026-04-28 23:44 | -24.41388 | 134.69984 | 36228 ft | 438 kts | 305° |
| 2026-04-28 23:44 | -24.37518 | 134.64824 | 36221 ft | 438 kts | 305° |
| 2026-04-28 23:45 | -24.33647 | 134.59667 | 36225 ft | 437 kts | 305° |
| 2026-04-28 23:45 | -24.29775 | 134.54517 | 36228 ft | 437 kts | 305° |
| 2026-04-28 23:46 | -24.25931 | 134.49406 | 36229 ft | 437 kts | 305° |
| 2026-04-28 23:46 | -24.22058 | 134.44263 | 36222 ft | 437 kts | 305° |
| 2026-04-28 23:47 | -24.18192 | 134.39135 | 36229 ft | 436 kts | 305° |
| 2026-04-28 23:47 | -24.14325 | 134.34011 | 36224 ft | 436 kts | 305° |
| 2026-04-28 23:48 | -24.10464 | 134.28899 | 36227 ft | 436 kts | 305° |
| 2026-04-28 23:48 | -24.06589 | 134.23776 | 36227 ft | 436 kts | 305° |
| 2026-04-28 23:49 | -24.02723 | 134.18671 | 36225 ft | 436 kts | 305° |
| 2026-04-28 23:49 | -23.98859 | 134.13572 | 36232 ft | 436 kts | 305° |
| 2026-04-28 23:50 | -23.94989 | 134.08470 | 36232 ft | 435 kts | 305° |
| 2026-04-28 23:50 | -23.91120 | 134.03374 | 36234 ft | 435 kts | 305° |
| 2026-04-28 23:51 | -23.87254 | 133.98290 | 36237 ft | 435 kts | 305° |
| 2026-04-28 23:51 | -23.83412 | 133.93240 | 36238 ft | 435 kts | 305° |
| 2026-04-28 23:52 | -23.79597 | 133.88117 | 36236 ft | 432 kts | 301° |
| 2026-04-28 23:52 | -23.76334 | 133.82626 | 36238 ft | 430 kts | 298° |
| 2026-04-28 23:53 | -23.73193 | 133.77063 | 36235 ft | 430 kts | 297° |
| 2026-04-28 23:53 | -23.70067 | 133.71492 | 36232 ft | 430 kts | 298° |
| 2026-04-28 23:54 | -23.66929 | 133.65922 | 36234 ft | 430 kts | 298° |
| 2026-04-28 23:54 | -23.63789 | 133.60372 | 36228 ft | 430 kts | 298° |
| 2026-04-28 23:55 | -23.60658 | 133.54845 | 36220 ft | 430 kts | 298° |
| 2026-04-28 23:55 | -23.57513 | 133.49300 | 36222 ft | 430 kts | 298° |
| 2026-04-28 23:56 | -23.54363 | 133.43751 | 36221 ft | 430 kts | 298° |
| 2026-04-28 23:56 | -23.51215 | 133.38211 | 36220 ft | 430 kts | 298° |
| 2026-04-28 23:57 | -23.48067 | 133.32678 | 36222 ft | 430 kts | 298° |
| 2026-04-28 23:57 | -23.44916 | 133.27146 | 36218 ft | 430 kts | 298° |
| 2026-04-28 23:58 | -23.41761 | 133.21613 | 36214 ft | 430 kts | 298° |
| 2026-04-28 23:58 | -23.38609 | 133.16090 | 36219 ft | 430 kts | 298° |
| 2026-04-28 23:59 | -23.35456 | 133.10573 | 36212 ft | 429 kts | 298° |
| 2026-04-28 23:59 | -23.32319 | 133.05089 | 36213 ft | 429 kts | 298° |
| 2026-04-29 00:00 | -23.29158 | 132.99569 | 36215 ft | 429 kts | 298° |
| 2026-04-29 00:00 | -23.26001 | 132.94062 | 36217 ft | 429 kts | 298° |
| 2026-04-29 00:01 | -23.22841 | 132.88555 | 36212 ft | 429 kts | 298° |
| 2026-04-29 00:01 | -23.19677 | 132.83049 | 36217 ft | 429 kts | 298° |
| 2026-04-29 00:02 | -23.16521 | 132.77561 | 36214 ft | 428 kts | 298° |
| 2026-04-29 00:02 | -23.13360 | 132.72071 | 36220 ft | 428 kts | 298° |
| 2026-04-29 00:03 | -23.10216 | 132.66617 | 36217 ft | 428 kts | 298° |
| 2026-04-29 00:03 | -23.07050 | 132.61130 | 36217 ft | 428 kts | 298° |
| 2026-04-29 00:04 | -23.03889 | 132.55657 | 36216 ft | 428 kts | 298° |
| 2026-04-29 00:04 | -23.00730 | 132.50194 | 36216 ft | 427 kts | 298° |
| 2026-04-29 00:05 | -22.97566 | 132.44727 | 36218 ft | 427 kts | 298° |
| 2026-04-29 00:05 | -22.94402 | 132.39268 | 36221 ft | 427 kts | 298° |
| 2026-04-29 00:06 | -22.91235 | 132.33806 | 36217 ft | 427 kts | 298° |
| 2026-04-29 00:06 | -22.88085 | 132.28383 | 36219 ft | 427 kts | 298° |
| 2026-04-29 00:07 | -22.84916 | 132.22931 | 36213 ft | 427 kts | 298° |
| 2026-04-29 00:07 | -22.81751 | 132.17491 | 36229 ft | 427 kts | 298° |
| 2026-04-29 00:08 | -22.78581 | 132.12050 | 36225 ft | 426 kts | 298° |
| 2026-04-29 00:08 | -22.75409 | 132.06611 | 36207 ft | 426 kts | 298° |
| 2026-04-29 00:09 | -22.72262 | 132.01219 | 36206 ft | 426 kts | 298° |
| 2026-04-29 00:09 | -22.69086 | 131.95783 | 36209 ft | 426 kts | 298° |
| 2026-04-29 00:10 | -22.65915 | 131.90363 | 36203 ft | 426 kts | 298° |
| 2026-04-29 00:10 | -22.62744 | 131.84947 | 36200 ft | 426 kts | 298° |
| 2026-04-29 00:11 | -22.60108 | 131.80449 | 36212 ft | 426 kts | 298° |
| 2026-04-29 00:12 | -22.55346 | 131.72335 | 36215 ft | 425 kts | 298° |
| 2026-04-29 00:12 | -22.52174 | 131.66936 | 36208 ft | 425 kts | 298° |
| 2026-04-29 00:13 | -22.48998 | 131.61536 | 36208 ft | 425 kts | 298° |
| 2026-04-29 00:13 | -22.45823 | 131.56143 | 36206 ft | 425 kts | 298° |
| 2026-04-29 00:14 | -22.42641 | 131.50744 | 36202 ft | 425 kts | 298° |
| 2026-04-29 00:14 | -22.39464 | 131.45359 | 36204 ft | 425 kts | 298° |
| 2026-04-29 00:15 | -22.36302 | 131.40005 | 36200 ft | 425 kts | 298° |
| 2026-04-29 00:15 | -22.33126 | 131.34632 | 36196 ft | 424 kts | 298° |
| 2026-04-29 00:16 | -22.29944 | 131.29256 | 36198 ft | 424 kts | 298° |
| 2026-04-29 00:16 | -22.26761 | 131.23882 | 36197 ft | 424 kts | 298° |
| 2026-04-29 00:17 | -22.23578 | 131.18514 | 36193 ft | 424 kts | 298° |
| 2026-04-29 00:17 | -22.20415 | 131.13186 | 36189 ft | 424 kts | 298° |
| 2026-04-29 00:18 | -22.17225 | 131.07818 | 36189 ft | 424 kts | 298° |
| 2026-04-29 00:18 | -22.14045 | 131.02469 | 36186 ft | 424 kts | 298° |
| 2026-04-29 00:19 | -22.10858 | 130.97116 | 36187 ft | 424 kts | 298° |
| 2026-04-29 00:19 | -22.07674 | 130.91774 | 36182 ft | 423 kts | 298° |
| 2026-04-29 00:20 | -22.04486 | 130.86429 | 36183 ft | 423 kts | 298° |
| 2026-04-29 00:20 | -22.01300 | 130.81093 | 36181 ft | 423 kts | 298° |
| 2026-04-29 00:21 | -21.98131 | 130.75793 | 36178 ft | 423 kts | 298° |
| 2026-04-29 00:21 | -21.94942 | 130.70463 | 36179 ft | 423 kts | 298° |
| 2026-04-29 00:22 | -21.91755 | 130.65141 | 36180 ft | 423 kts | 298° |
| 2026-04-29 00:22 | -21.88563 | 130.59819 | 36178 ft | 423 kts | 298° |
| 2026-04-29 00:23 | -21.85371 | 130.54500 | 36178 ft | 423 kts | 299° |
| 2026-04-29 00:23 | -21.82181 | 130.49190 | 36172 ft | 423 kts | 299° |
| 2026-04-29 00:24 | -21.78988 | 130.43882 | 36173 ft | 422 kts | 299° |
| 2026-04-29 00:24 | -21.75794 | 130.38576 | 36176 ft | 422 kts | 299° |
| 2026-04-29 00:25 | -21.72597 | 130.33272 | 36169 ft | 422 kts | 299° |
| 2026-04-29 00:25 | -21.69398 | 130.27968 | 36171 ft | 422 kts | 299° |
| 2026-04-29 00:26 | -21.66199 | 130.22670 | 36167 ft | 422 kts | 299° |
| 2026-04-29 00:26 | -21.63018 | 130.17407 | 36170 ft | 422 kts | 299° |
| 2026-04-29 00:27 | -21.59818 | 130.12117 | 36170 ft | 422 kts | 299° |
| 2026-04-29 00:27 | -21.56617 | 130.06830 | 36163 ft | 422 kts | 299° |
| 2026-04-29 00:28 | -21.53412 | 130.01542 | 36164 ft | 422 kts | 299° |
| 2026-04-29 00:28 | -21.50206 | 129.96258 | 36169 ft | 422 kts | 299° |
| 2026-04-29 00:29 | -21.47004 | 129.90984 | 36166 ft | 422 kts | 299° |
| 2026-04-29 00:29 | -21.43796 | 129.85706 | 36165 ft | 422 kts | 299° |
| 2026-04-29 00:30 | -21.40587 | 129.80433 | 36166 ft | 422 kts | 299° |
| 2026-04-29 00:30 | -21.37378 | 129.75164 | 36161 ft | 422 kts | 299° |
| 2026-04-29 00:31 | -21.34168 | 129.69898 | 36162 ft | 422 kts | 299° |
| 2026-04-29 00:31 | -21.30975 | 129.64665 | 36160 ft | 422 kts | 299° |
| 2026-04-29 00:32 | -21.27764 | 129.59409 | 36161 ft | 422 kts | 299° |
| 2026-04-29 00:32 | -21.24544 | 129.54141 | 36159 ft | 422 kts | 299° |
| 2026-04-29 00:33 | -21.21328 | 129.48884 | 36158 ft | 421 kts | 299° |
| 2026-04-29 00:33 | -21.18112 | 129.43635 | 36156 ft | 421 kts | 299° |
| 2026-04-29 00:34 | -21.14894 | 129.38386 | 36155 ft | 421 kts | 299° |
| 2026-04-29 00:34 | -21.11671 | 129.33133 | 36156 ft | 421 kts | 299° |
| 2026-04-29 00:35 | -21.08446 | 129.27882 | 36158 ft | 422 kts | 299° |
| 2026-04-29 00:35 | -21.05245 | 129.22675 | 36156 ft | 421 kts | 299° |
| 2026-04-29 00:36 | -21.02015 | 129.17427 | 36156 ft | 421 kts | 299° |
| 2026-04-29 00:36 | -20.98789 | 129.12188 | 36155 ft | 421 kts | 299° |
| 2026-04-29 00:37 | -20.95559 | 129.06949 | 36156 ft | 422 kts | 299° |
| 2026-04-29 00:37 | -20.92329 | 129.01714 | 36159 ft | 422 kts | 299° |
| 2026-04-29 00:38 | -20.89094 | 128.96477 | 36158 ft | 422 kts | 299° |
| 2026-04-29 00:38 | -20.85875 | 128.91271 | 36157 ft | 422 kts | 299° |
| 2026-04-29 00:39 | -20.82617 | 128.86005 | 36153 ft | 422 kts | 299° |
| 2026-04-29 00:39 | -20.79403 | 128.80815 | 36153 ft | 422 kts | 299° |
| 2026-04-29 00:40 | -20.76161 | 128.75585 | 36157 ft | 422 kts | 299° |
| 2026-04-29 00:40 | -20.72916 | 128.70357 | 36151 ft | 422 kts | 299° |
| 2026-04-29 00:41 | -20.69673 | 128.65134 | 36149 ft | 422 kts | 299° |
| 2026-04-29 00:41 | -20.66425 | 128.59908 | 36148 ft | 422 kts | 300° |
| 2026-04-29 00:42 | -20.63175 | 128.54684 | 36145 ft | 422 kts | 300° |
| 2026-04-29 00:42 | -20.59946 | 128.49500 | 36147 ft | 422 kts | 300° |
| 2026-04-29 00:43 | -20.56693 | 128.44282 | 36145 ft | 422 kts | 300° |
| 2026-04-29 00:43 | -20.53439 | 128.39066 | 36145 ft | 422 kts | 300° |
| 2026-04-29 00:44 | -20.50184 | 128.33854 | 36144 ft | 422 kts | 300° |
| 2026-04-29 00:44 | -20.46927 | 128.28643 | 36138 ft | 422 kts | 300° |
| 2026-04-29 00:45 | -20.43664 | 128.23426 | 36142 ft | 423 kts | 300° |
| 2026-04-29 00:45 | -20.40400 | 128.18214 | 36138 ft | 423 kts | 300° |
| 2026-04-29 00:46 | -20.37135 | 128.13004 | 36134 ft | 423 kts | 300° |
| 2026-04-29 00:46 | -20.33863 | 128.07788 | 36134 ft | 423 kts | 300° |
| 2026-04-29 00:47 | -20.30591 | 128.02577 | 36132 ft | 423 kts | 300° |
| 2026-04-29 00:47 | -20.27316 | 127.97365 | 36133 ft | 423 kts | 300° |
| 2026-04-29 00:48 | -20.24055 | 127.92181 | 36129 ft | 423 kts | 300° |
| 2026-04-29 00:48 | -20.20779 | 127.86976 | 36125 ft | 423 kts | 300° |
| 2026-04-29 00:49 | -20.17501 | 127.81773 | 36122 ft | 423 kts | 300° |
| 2026-04-29 00:49 | -20.14218 | 127.76567 | 36125 ft | 423 kts | 300° |
| 2026-04-29 00:50 | -20.10932 | 127.71360 | 36124 ft | 424 kts | 300° |
| 2026-04-29 00:50 | -20.07644 | 127.66156 | 36122 ft | 424 kts | 300° |
| 2026-04-29 00:51 | -20.04356 | 127.60955 | 36114 ft | 423 kts | 300° |
| 2026-04-29 00:51 | -20.01069 | 127.55761 | 36118 ft | 423 kts | 300° |
| 2026-04-29 00:52 | -19.97776 | 127.50563 | 36118 ft | 423 kts | 300° |
| 2026-04-29 00:52 | -19.94506 | 127.45404 | 36114 ft | 424 kts | 300° |
| 2026-04-29 00:53 | -19.91213 | 127.40214 | 36117 ft | 424 kts | 300° |
| 2026-04-29 00:53 | -19.87913 | 127.35018 | 36114 ft | 424 kts | 300° |
| 2026-04-29 00:54 | -19.84613 | 127.29825 | 36118 ft | 424 kts | 300° |
| 2026-04-29 00:54 | -19.81310 | 127.24634 | 36121 ft | 424 kts | 300° |
| 2026-04-29 00:55 | -19.78005 | 127.19443 | 36119 ft | 424 kts | 300° |
| 2026-04-29 00:55 | -19.74699 | 127.14256 | 36118 ft | 424 kts | 300° |
| 2026-04-29 00:56 | -19.71390 | 127.09069 | 36116 ft | 424 kts | 300° |
| 2026-04-29 00:56 | -19.68084 | 127.03889 | 36116 ft | 424 kts | 300° |
| 2026-04-29 00:57 | -19.64772 | 126.98706 | 36112 ft | 424 kts | 300° |
| 2026-04-29 00:57 | -19.61480 | 126.93559 | 36120 ft | 424 kts | 300° |
| 2026-04-29 00:58 | -19.58169 | 126.88385 | 36122 ft | 424 kts | 300° |
| 2026-04-29 00:58 | -19.54855 | 126.83211 | 36114 ft | 424 kts | 300° |
| 2026-04-29 00:59 | -19.51540 | 126.78041 | 36116 ft | 424 kts | 300° |
| 2026-04-29 00:59 | -19.48220 | 126.72867 | 36095 ft | 424 kts | 300° |
| 2026-04-29 01:00 | -19.45456 | 126.68563 | 36098 ft | 424 kts | 300° |
| 2026-04-29 01:00 | -19.42134 | 126.63396 | 36101 ft | 424 kts | 301° |
| 2026-04-29 01:01 | -19.38806 | 126.58232 | 36099 ft | 424 kts | 301° |
| 2026-04-29 01:01 | -19.35475 | 126.53068 | 36092 ft | 424 kts | 301° |
| 2026-04-29 01:02 | -19.32146 | 126.47913 | 36089 ft | 424 kts | 301° |
| 2026-04-29 01:02 | -19.28811 | 126.42753 | 36089 ft | 424 kts | 301° |
| 2026-04-29 01:03 | -19.25475 | 126.37593 | 36089 ft | 424 kts | 301° |
| 2026-04-29 01:03 | -19.22137 | 126.32437 | 36085 ft | 424 kts | 301° |
| 2026-04-29 01:04 | -19.18820 | 126.27316 | 36085 ft | 424 kts | 301° |
| 2026-04-29 01:04 | -19.15483 | 126.22170 | 36082 ft | 424 kts | 301° |
| 2026-04-29 01:05 | -19.12143 | 126.17022 | 36080 ft | 424 kts | 301° |
| 2026-04-29 01:05 | -19.08799 | 126.11874 | 36088 ft | 424 kts | 301° |
| 2026-04-29 01:06 | -19.05459 | 126.06734 | 36087 ft | 424 kts | 301° |
| 2026-04-29 01:06 | -19.02111 | 126.01587 | 36076 ft | 425 kts | 301° |
| 2026-04-29 01:07 | -18.98762 | 125.96444 | 36074 ft | 424 kts | 301° |
| 2026-04-29 01:07 | -18.95415 | 125.91307 | 36073 ft | 425 kts | 301° |
| 2026-04-29 01:08 | -18.92062 | 125.86165 | 36069 ft | 425 kts | 301° |
| 2026-04-29 01:08 | -18.88731 | 125.81061 | 36065 ft | 425 kts | 301° |
| 2026-04-29 01:09 | -18.85379 | 125.75929 | 36072 ft | 425 kts | 301° |
| 2026-04-29 01:09 | -18.82025 | 125.70798 | 36068 ft | 425 kts | 301° |
| 2026-04-29 01:10 | -18.78665 | 125.65663 | 36065 ft | 425 kts | 301° |
| 2026-04-29 01:10 | -18.75305 | 125.60533 | 36065 ft | 425 kts | 301° |
| 2026-04-29 01:11 | -18.71942 | 125.55401 | 36063 ft | 425 kts | 301° |
| 2026-04-29 01:11 | -18.68583 | 125.50278 | 36067 ft | 425 kts | 301° |
| 2026-04-29 01:12 | -18.65213 | 125.45144 | 36063 ft | 425 kts | 301° |
| 2026-04-29 01:12 | -18.61849 | 125.40024 | 36064 ft | 425 kts | 301° |
| 2026-04-29 01:13 | -18.58479 | 125.34897 | 36062 ft | 425 kts | 301° |
| 2026-04-29 01:13 | -18.55108 | 125.29775 | 36061 ft | 425 kts | 301° |
| 2026-04-29 01:14 | -18.51754 | 125.24680 | 36061 ft | 425 kts | 301° |
| 2026-04-29 01:14 | -18.48377 | 125.19556 | 36060 ft | 425 kts | 301° |
| 2026-04-29 01:15 | -18.45002 | 125.14440 | 36056 ft | 425 kts | 302° |
| 2026-04-29 01:15 | -18.41621 | 125.09318 | 36054 ft | 425 kts | 302° |
| 2026-04-29 01:16 | -18.38241 | 125.04202 | 36054 ft | 426 kts | 302° |
| 2026-04-29 01:16 | -18.34856 | 124.99081 | 36051 ft | 426 kts | 302° |
| 2026-04-29 01:17 | -18.31470 | 124.93964 | 36052 ft | 426 kts | 302° |
| 2026-04-29 01:17 | -18.28082 | 124.88848 | 36050 ft | 426 kts | 302° |
| 2026-04-29 01:18 | -18.24693 | 124.83734 | 36048 ft | 426 kts | 302° |
| 2026-04-29 01:18 | -18.19623 | 124.76091 | 36046 ft | 426 kts | 302° |
| 2026-04-29 01:19 | -18.16231 | 124.70983 | 36044 ft | 426 kts | 302° |
| 2026-04-29 01:19 | -18.12826 | 124.65860 | 36045 ft | 426 kts | 302° |
| 2026-04-29 01:20 | -18.09429 | 124.60752 | 36043 ft | 427 kts | 302° |
| 2026-04-29 01:20 | -18.06024 | 124.55636 | 36041 ft | 427 kts | 302° |
| 2026-04-29 01:21 | -18.02620 | 124.50525 | 36046 ft | 427 kts | 302° |
| 2026-04-29 01:21 | -17.99215 | 124.45417 | 36039 ft | 427 kts | 302° |
| 2026-04-29 01:22 | -17.95799 | 124.40298 | 36041 ft | 427 kts | 302° |
| 2026-04-29 01:22 | -17.92409 | 124.35221 | 36040 ft | 427 kts | 302° |
| 2026-04-29 01:23 | -17.88995 | 124.30111 | 36041 ft | 427 kts | 302° |
| 2026-04-29 01:23 | -17.85576 | 124.24998 | 36040 ft | 427 kts | 302° |
| 2026-04-29 01:24 | -17.82162 | 124.19896 | 36044 ft | 427 kts | 302° |
| 2026-04-29 01:24 | -17.78742 | 124.14791 | 36041 ft | 428 kts | 302° |
| 2026-04-29 01:25 | -17.75321 | 124.09685 | 36032 ft | 428 kts | 302° |
| 2026-04-29 01:25 | -17.71895 | 124.04578 | 36019 ft | 428 kts | 302° |
| 2026-04-29 01:26 | -17.68469 | 123.99475 | 36009 ft | 428 kts | 302° |
| 2026-04-29 01:26 | -17.65064 | 123.94407 | 36002 ft | 428 kts | 302° |
| 2026-04-29 01:27 | -17.61632 | 123.89302 | 35992 ft | 428 kts | 302° |
| 2026-04-29 01:27 | -17.57979 | 123.84361 | 35993 ft | 431 kts | 310° |
| 2026-04-29 01:28 | -17.53785 | 123.79847 | 35993 ft | 432 kts | 311° |
| 2026-04-29 01:28 | -17.49512 | 123.75411 | 35996 ft | 433 kts | 312° |
| 2026-04-29 01:29 | -17.45226 | 123.70979 | 36015 ft | 433 kts | 312° |
| 2026-04-29 01:29 | -17.40983 | 123.66576 | 36024 ft | 432 kts | 311° |
| 2026-04-29 01:30 | -17.36709 | 123.62134 | 36017 ft | 433 kts | 312° |
| 2026-04-29 01:30 | -17.32435 | 123.57694 | 36020 ft | 433 kts | 312° |
| 2026-04-29 01:31 | -17.28154 | 123.53251 | 36018 ft | 433 kts | 312° |
| 2026-04-29 01:31 | -17.23875 | 123.48813 | 36015 ft | 433 kts | 312° |
| 2026-04-29 01:32 | -17.19588 | 123.44370 | 36032 ft | 433 kts | 312° |
| 2026-04-29 01:32 | -17.15296 | 123.39925 | 36032 ft | 433 kts | 312° |
| 2026-04-29 01:33 | -17.11010 | 123.35490 | 36027 ft | 433 kts | 312° |
| 2026-04-29 01:33 | -17.06747 | 123.31081 | 36021 ft | 434 kts | 312° |
| 2026-04-29 01:34 | -17.02454 | 123.26643 | 36025 ft | 434 kts | 312° |
| 2026-04-29 01:34 | -16.98160 | 123.22208 | 36022 ft | 434 kts | 312° |
| 2026-04-29 01:35 | -16.93861 | 123.17771 | 36024 ft | 434 kts | 312° |
| 2026-04-29 01:35 | -16.89560 | 123.13335 | 36024 ft | 434 kts | 312° |
| 2026-04-29 01:36 | -16.85259 | 123.08901 | 36024 ft | 434 kts | 312° |
| 2026-04-29 01:36 | -16.80959 | 123.04473 | 36018 ft | 435 kts | 312° |
| 2026-04-29 01:37 | -16.76642 | 123.00029 | 36017 ft | 435 kts | 312° |
| 2026-04-29 01:37 | -16.72334 | 122.95597 | 36017 ft | 435 kts | 312° |
| 2026-04-29 01:38 | -16.68021 | 122.91163 | 36017 ft | 435 kts | 312° |
| 2026-04-29 01:38 | -16.63730 | 122.86755 | 36017 ft | 436 kts | 312° |
| 2026-04-29 01:39 | -16.59413 | 122.82323 | 36016 ft | 436 kts | 313° |
| 2026-04-29 01:39 | -16.55092 | 122.77891 | 36015 ft | 436 kts | 313° |
| 2026-04-29 01:40 | -16.50766 | 122.73456 | 36013 ft | 436 kts | 313° |
| 2026-04-29 01:40 | -16.46441 | 122.69024 | 36011 ft | 436 kts | 313° |
| 2026-04-29 01:41 | -16.42108 | 122.64588 | 36012 ft | 437 kts | 313° |
| 2026-04-29 01:41 | -16.37773 | 122.60152 | 36014 ft | 437 kts | 313° |
| 2026-04-29 01:42 | -16.33434 | 122.55715 | 36010 ft | 437 kts | 313° |
| 2026-04-29 01:42 | -16.29095 | 122.51281 | 36010 ft | 437 kts | 313° |
| 2026-04-29 01:43 | -16.24780 | 122.46875 | 36009 ft | 437 kts | 313° |
| 2026-04-29 01:43 | -16.20433 | 122.42439 | 36006 ft | 437 kts | 313° |
| 2026-04-29 01:44 | -16.16093 | 122.38012 | 36004 ft | 437 kts | 313° |
| 2026-04-29 01:44 | -16.11743 | 122.33580 | 36005 ft | 437 kts | 313° |
| 2026-04-29 01:45 | -16.07392 | 122.29147 | 36007 ft | 438 kts | 313° |
| 2026-04-29 01:45 | -16.03040 | 122.24718 | 36006 ft | 438 kts | 313° |
| 2026-04-29 01:46 | -15.99422 | 122.21037 | 36008 ft | 438 kts | 313° |
| 2026-04-29 01:46 | -15.95066 | 122.16609 | 36007 ft | 438 kts | 313° |
| 2026-04-29 01:47 | -15.90001 | 122.11463 | 36008 ft | 438 kts | 313° |
| 2026-04-29 01:47 | -15.85638 | 122.07033 | 36006 ft | 438 kts | 313° |
| 2026-04-29 01:48 | -15.81981 | 122.03323 | 36007 ft | 438 kts | 313° |
| 2026-04-29 01:48 | -15.77617 | 121.98897 | 36007 ft | 439 kts | 313° |
| 2026-04-29 01:49 | -15.73274 | 121.94495 | 36006 ft | 439 kts | 313° |
| 2026-04-29 01:49 | -15.68898 | 121.90064 | 36005 ft | 439 kts | 313° |
| 2026-04-29 01:50 | -15.64525 | 121.85638 | 36003 ft | 439 kts | 313° |
| 2026-04-29 01:50 | -15.60145 | 121.81207 | 36005 ft | 439 kts | 313° |
| 2026-04-29 01:51 | -15.55767 | 121.76782 | 36007 ft | 439 kts | 313° |
| 2026-04-29 01:51 | -15.51384 | 121.72353 | 36007 ft | 440 kts | 313° |
| 2026-04-29 01:52 | -15.47001 | 121.67928 | 36008 ft | 440 kts | 313° |
| 2026-04-29 01:52 | -15.42649 | 121.63538 | 36003 ft | 440 kts | 313° |
| 2026-04-29 01:53 | -15.38257 | 121.59109 | 36008 ft | 440 kts | 313° |
| 2026-04-29 01:53 | -15.33867 | 121.54685 | 36006 ft | 440 kts | 313° |
| 2026-04-29 01:54 | -15.29475 | 121.50261 | 36007 ft | 440 kts | 314° |
| 2026-04-29 01:54 | -15.25077 | 121.45834 | 36004 ft | 441 kts | 314° |
| 2026-04-29 01:55 | -15.20681 | 121.41412 | 36004 ft | 441 kts | 314° |
| 2026-04-29 01:55 | -15.16282 | 121.36990 | 36004 ft | 441 kts | 314° |
| 2026-04-29 01:56 | -15.11882 | 121.32570 | 36003 ft | 441 kts | 314° |
| 2026-04-29 01:56 | -15.07509 | 121.28179 | 36002 ft | 441 kts | 314° |
| 2026-04-29 01:57 | -15.03097 | 121.23753 | 36002 ft | 441 kts | 314° |
| 2026-04-29 01:57 | -14.98694 | 121.19337 | 36001 ft | 441 kts | 314° |
| 2026-04-29 01:58 | -14.94284 | 121.14917 | 36000 ft | 442 kts | 314° |
| 2026-04-29 01:58 | -14.89863 | 121.10489 | 35998 ft | 442 kts | 314° |
| 2026-04-29 01:59 | -14.85451 | 121.06072 | 36001 ft | 442 kts | 314° |
| 2026-04-29 01:59 | -14.81057 | 121.01677 | 35997 ft | 442 kts | 314° |
| 2026-04-29 02:00 | -14.76627 | 120.97248 | 35997 ft | 442 kts | 314° |
| 2026-04-29 02:00 | -14.72202 | 120.92826 | 35998 ft | 443 kts | 314° |
| 2026-04-29 02:01 | -14.67768 | 120.88399 | 35999 ft | 443 kts | 314° |
| 2026-04-29 02:01 | -14.63331 | 120.83970 | 35996 ft | 443 kts | 314° |
| 2026-04-29 02:02 | -14.58927 | 120.79578 | 35996 ft | 443 kts | 314° |
| 2026-04-29 02:02 | -14.54491 | 120.75156 | 35992 ft | 443 kts | 314° |
| 2026-04-29 02:03 | -14.50054 | 120.70735 | 35994 ft | 443 kts | 314° |
| 2026-04-29 02:03 | -14.45611 | 120.66311 | 35992 ft | 443 kts | 314° |
| 2026-04-29 02:04 | -14.41167 | 120.61890 | 35991 ft | 444 kts | 314° |
| 2026-04-29 02:04 | -14.36730 | 120.57476 | 36012 ft | 444 kts | 314° |
| 2026-04-29 02:05 | -14.32276 | 120.53049 | 35975 ft | 444 kts | 314° |
| 2026-04-29 02:05 | -14.27822 | 120.48626 | 35992 ft | 444 kts | 314° |
| 2026-04-29 02:06 | -14.23366 | 120.44202 | 35993 ft | 445 kts | 314° |
| 2026-04-29 02:06 | -14.18915 | 120.39785 | 35990 ft | 445 kts | 314° |
| 2026-04-29 02:07 | -14.14451 | 120.35359 | 35991 ft | 445 kts | 314° |
| 2026-04-29 02:07 | -14.09985 | 120.30933 | 35990 ft | 445 kts | 314° |
| 2026-04-29 02:08 | -14.05525 | 120.26515 | 35992 ft | 445 kts | 314° |
| 2026-04-29 02:08 | -14.01087 | 120.22121 | 35987 ft | 446 kts | 314° |
| 2026-04-29 02:09 | -13.96610 | 120.17692 | 35986 ft | 446 kts | 314° |
| 2026-04-29 02:09 | -13.92133 | 120.13266 | 35987 ft | 446 kts | 314° |
| 2026-04-29 02:10 | -13.87652 | 120.08837 | 35986 ft | 446 kts | 314° |
| 2026-04-29 02:10 | -13.83169 | 120.04409 | 35987 ft | 447 kts | 314° |
| 2026-04-29 02:11 | -13.78685 | 119.99982 | 35984 ft | 446 kts | 314° |
| 2026-04-29 02:11 | -13.74228 | 119.95586 | 35986 ft | 447 kts | 314° |
| 2026-04-29 02:12 | -13.69739 | 119.91160 | 35983 ft | 447 kts | 314° |
| 2026-04-29 02:12 | -13.65253 | 119.86739 | 35983 ft | 447 kts | 315° |
| 2026-04-29 02:13 | -13.60757 | 119.82310 | 35980 ft | 447 kts | 315° |
| 2026-04-29 02:13 | -13.56264 | 119.77887 | 35984 ft | 448 kts | 315° |
| 2026-04-29 02:14 | -13.51761 | 119.73457 | 35979 ft | 448 kts | 315° |
| 2026-04-29 02:14 | -13.47260 | 119.69031 | 35979 ft | 448 kts | 315° |
| 2026-04-29 02:15 | -13.42760 | 119.64608 | 35977 ft | 448 kts | 315° |
| 2026-04-29 02:15 | -13.38289 | 119.60217 | 35975 ft | 448 kts | 315° |
| 2026-04-29 02:16 | -13.33785 | 119.55796 | 35978 ft | 448 kts | 315° |
| 2026-04-29 02:16 | -13.29276 | 119.51371 | 35976 ft | 448 kts | 315° |
| 2026-04-29 02:17 | -13.24759 | 119.46942 | 35975 ft | 449 kts | 315° |
| 2026-04-29 02:17 | -13.20241 | 119.42514 | 35975 ft | 449 kts | 315° |
| 2026-04-29 02:18 | -13.15724 | 119.38089 | 35975 ft | 449 kts | 315° |
| 2026-04-29 02:18 | -13.11211 | 119.33671 | 35973 ft | 449 kts | 315° |
| 2026-04-29 02:19 | -13.06696 | 119.29252 | 35972 ft | 449 kts | 315° |
| 2026-04-29 02:19 | -13.02205 | 119.24860 | 35972 ft | 449 kts | 315° |
| 2026-04-29 02:20 | -12.97672 | 119.20429 | 35971 ft | 449 kts | 315° |
| 2026-04-29 02:20 | -12.93145 | 119.16006 | 35971 ft | 450 kts | 315° |
| 2026-04-29 02:21 | -12.88614 | 119.11582 | 35967 ft | 450 kts | 315° |
| 2026-04-29 02:21 | -12.84079 | 119.07156 | 35970 ft | 450 kts | 315° |
| 2026-04-29 02:22 | -12.79548 | 119.02737 | 35970 ft | 450 kts | 315° |
| 2026-04-29 02:22 | -12.75011 | 118.98313 | 35967 ft | 450 kts | 315° |
| 2026-04-29 02:23 | -12.70467 | 118.93886 | 35965 ft | 450 kts | 315° |
| 2026-04-29 02:23 | -12.65956 | 118.89492 | 35966 ft | 451 kts | 315° |
| 2026-04-29 02:24 | -12.61411 | 118.85068 | 35965 ft | 451 kts | 315° |
| 2026-04-29 02:25 | -12.54580 | 118.78423 | 35966 ft | 451 kts | 315° |
| 2026-04-29 02:25 | -12.50027 | 118.73997 | 35967 ft | 451 kts | 315° |
| 2026-04-29 02:26 | -12.45469 | 118.69568 | 35963 ft | 451 kts | 315° |
| 2026-04-29 02:26 | -12.40915 | 118.65145 | 35964 ft | 452 kts | 315° |
| 2026-04-29 02:27 | -12.36383 | 118.60746 | 35962 ft | 452 kts | 315° |
| 2026-04-29 02:27 | -12.31818 | 118.56318 | 35963 ft | 453 kts | 315° |
| 2026-04-29 02:28 | -12.27244 | 118.51882 | 35961 ft | 453 kts | 315° |
| 2026-04-29 02:28 | -12.22669 | 118.47447 | 35959 ft | 453 kts | 315° |
| 2026-04-29 02:29 | -12.18083 | 118.43005 | 35964 ft | 454 kts | 316° |
| 2026-04-29 02:29 | -12.13499 | 118.38567 | 35961 ft | 454 kts | 316° |
| 2026-04-29 02:30 | -12.08913 | 118.34129 | 35959 ft | 454 kts | 316° |
| 2026-04-29 02:30 | -12.04352 | 118.29717 | 35960 ft | 454 kts | 316° |
| 2026-04-29 02:31 | -11.99764 | 118.25283 | 35960 ft | 454 kts | 316° |
| 2026-04-29 02:31 | -11.95167 | 118.20844 | 35959 ft | 455 kts | 316° |
| 2026-04-29 02:32 | -11.90575 | 118.16406 | 35962 ft | 455 kts | 316° |
| 2026-04-29 02:32 | -11.85975 | 118.11964 | 35959 ft | 455 kts | 316° |
| 2026-04-29 02:33 | -11.81369 | 118.07519 | 35953 ft | 455 kts | 316° |
| 2026-04-29 02:33 | -11.76763 | 118.03078 | 35956 ft | 455 kts | 316° |
| 2026-04-29 02:34 | -11.72157 | 117.98638 | 35955 ft | 456 kts | 316° |
| 2026-04-29 02:34 | -11.67546 | 117.94196 | 35952 ft | 456 kts | 316° |
| 2026-04-29 02:35 | -11.62934 | 117.89755 | 35952 ft | 456 kts | 316° |
| 2026-04-29 02:35 | -11.58322 | 117.85316 | 35953 ft | 456 kts | 316° |
| 2026-04-29 02:36 | -11.54483 | 117.81622 | 35955 ft | 456 kts | 316° |
| 2026-04-29 02:36 | -11.49117 | 117.76462 | 35950 ft | 456 kts | 316° |
| 2026-04-29 02:37 | -11.44500 | 117.72024 | 35952 ft | 456 kts | 316° |
| 2026-04-29 02:37 | -11.40662 | 117.68336 | 35952 ft | 456 kts | 316° |
| 2026-04-29 02:38 | -11.35258 | 117.63146 | 35949 ft | 456 kts | 316° |
| 2026-04-29 02:38 | -11.31420 | 117.59462 | 35951 ft | 456 kts | 316° |
| 2026-04-29 02:39 | -11.26796 | 117.55027 | 35948 ft | 456 kts | 316° |
| 2026-04-29 02:39 | -11.22172 | 117.50592 | 35947 ft | 456 kts | 316° |
| 2026-04-29 02:40 | -11.17550 | 117.46162 | 35948 ft | 456 kts | 316° |
| 2026-04-29 02:40 | -11.12928 | 117.41734 | 35948 ft | 456 kts | 316° |
| 2026-04-29 02:41 | -11.08339 | 117.37338 | 35948 ft | 456 kts | 316° |
| 2026-04-29 02:41 | -11.03710 | 117.32907 | 35944 ft | 456 kts | 316° |
| 2026-04-29 02:42 | -10.99090 | 117.28486 | 35945 ft | 456 kts | 316° |
| 2026-04-29 02:42 | -10.94468 | 117.24066 | 35939 ft | 456 kts | 316° |
| 2026-04-29 02:43 | -10.89844 | 117.19645 | 35941 ft | 456 kts | 316° |
| 2026-04-29 02:43 | -10.85218 | 117.15225 | 35943 ft | 456 kts | 316° |
| 2026-04-29 02:44 | -10.80591 | 117.10806 | 35938 ft | 456 kts | 316° |
| 2026-04-29 02:44 | -10.75989 | 117.06412 | 35942 ft | 456 kts | 316° |
| 2026-04-29 02:45 | -10.71361 | 117.01995 | 35940 ft | 456 kts | 316° |
| 2026-04-29 02:45 | -10.66728 | 116.97578 | 35944 ft | 457 kts | 316° |
| 2026-04-29 02:46 | -10.62082 | 116.93149 | 35940 ft | 457 kts | 316° |
| 2026-04-29 02:46 | -10.57434 | 116.88718 | 35940 ft | 458 kts | 316° |
| 2026-04-29 02:47 | -10.52781 | 116.84287 | 35939 ft | 459 kts | 316° |
| 2026-04-29 02:47 | -10.48120 | 116.79848 | 35938 ft | 459 kts | 316° |
| 2026-04-29 02:48 | -10.43449 | 116.75403 | 35939 ft | 460 kts | 316° |
| 2026-04-29 02:48 | -10.38775 | 116.70956 | 35940 ft | 460 kts | 316° |
| 2026-04-29 02:49 | -10.34136 | 116.66544 | 35937 ft | 460 kts | 316° |
| 2026-04-29 02:49 | -10.29463 | 116.62103 | 35937 ft | 460 kts | 316° |
| 2026-04-29 02:50 | -10.24785 | 116.57658 | 35935 ft | 460 kts | 316° |
| 2026-04-29 02:50 | -10.20109 | 116.53217 | 35938 ft | 461 kts | 316° |
| 2026-04-29 02:51 | -10.15421 | 116.48767 | 35934 ft | 461 kts | 316° |
| 2026-04-29 02:51 | -10.10730 | 116.44315 | 35935 ft | 461 kts | 316° |
| 2026-04-29 02:52 | -10.06038 | 116.39866 | 35935 ft | 462 kts | 316° |
| 2026-04-29 02:52 | -10.01350 | 116.35420 | 35933 ft | 462 kts | 316° |